<?xml version="1.0" encoding="UTF-8" standalone="no" ?>
<gpx xmlns="http://www.topografix.com/GPX/1/1" xmlns:xsi="http://www.w3.org/2001/XMLSchema-instance" xsi:schemaLocation="http://www.topografix.com/GPX/1/1 http://www.topografix.com/GPX/1/1/gpx.xsd" version="1.1" creator="VisuGPX - https://www.visugpx.com">
  <metadata>
    <name>50 Km Bourgueil 2025</name>
  </metadata>
  <trk>
    <name><![CDATA[50 Km Bourgueil 2025_1]]></name>
    <desc><![CDATA[]]></desc>
    <trkseg>
      <trkpt lat="47.3342" lon="0.11453">
        <ele>70</ele>
        <time>2025-06-11T13:48:56Z</time>
      </trkpt>
      <trkpt lat="47.33428" lon="0.11433">
        <ele>70.2</ele>
        <time>2025-06-11T13:49:00Z</time>
      </trkpt>
      <trkpt lat="47.33434" lon="0.11395">
        <ele>70.7</ele>
        <time>2025-06-11T13:49:06Z</time>
      </trkpt>
      <trkpt lat="47.33439" lon="0.11391">
        <ele>70.4</ele>
        <time>2025-06-11T13:49:07Z</time>
      </trkpt>
      <trkpt lat="47.33433" lon="0.1141">
        <ele>70.5</ele>
        <time>2025-06-11T13:49:11Z</time>
      </trkpt>
      <trkpt lat="47.33443" lon="0.11397">
        <ele>70.1</ele>
        <time>2025-06-11T13:49:14Z</time>
      </trkpt>
      <trkpt lat="47.33443" lon="0.11334">
        <ele>72</ele>
        <time>2025-06-11T13:49:24Z</time>
      </trkpt>
      <trkpt lat="47.33451" lon="0.11282">
        <ele>72</ele>
        <time>2025-06-11T13:49:32Z</time>
      </trkpt>
      <trkpt lat="47.33447" lon="0.11236">
        <ele>73</ele>
        <time>2025-06-11T13:49:39Z</time>
      </trkpt>
      <trkpt lat="47.33421" lon="0.11167">
        <ele>75</ele>
        <time>2025-06-11T13:49:52Z</time>
      </trkpt>
      <trkpt lat="47.33465" lon="0.11034">
        <ele>80.2</ele>
        <time>2025-06-11T13:50:15Z</time>
      </trkpt>
      <trkpt lat="47.33486" lon="0.10986">
        <ele>80</ele>
        <time>2025-06-11T13:50:24Z</time>
      </trkpt>
      <trkpt lat="47.33463" lon="0.10943">
        <ele>83</ele>
        <time>2025-06-11T13:50:33Z</time>
      </trkpt>
      <trkpt lat="47.33346" lon="0.10859">
        <ele>90.5</ele>
        <time>2025-06-11T13:51:03Z</time>
      </trkpt>
      <trkpt lat="47.33224" lon="0.1073">
        <ele>92.7</ele>
        <time>2025-06-11T13:51:39Z</time>
      </trkpt>
      <trkpt lat="47.33164" lon="0.10682">
        <ele>94.4</ele>
        <time>2025-06-11T13:51:54Z</time>
      </trkpt>
      <trkpt lat="47.33084" lon="0.10585">
        <ele>99</ele>
        <time>2025-06-11T13:52:19Z</time>
      </trkpt>
      <trkpt lat="47.33037" lon="0.10536">
        <ele>101.7</ele>
        <time>2025-06-11T13:52:32Z</time>
      </trkpt>
      <trkpt lat="47.3297" lon="0.10483">
        <ele>103.1</ele>
        <time>2025-06-11T13:52:50Z</time>
      </trkpt>
      <trkpt lat="47.32896" lon="0.10412">
        <ele>104</ele>
        <time>2025-06-11T13:53:10Z</time>
      </trkpt>
      <trkpt lat="47.32865" lon="0.10364">
        <ele>104</ele>
        <time>2025-06-11T13:53:21Z</time>
      </trkpt>
      <trkpt lat="47.32885" lon="0.10318">
        <ele>103</ele>
        <time>2025-06-11T13:53:30Z</time>
      </trkpt>
      <trkpt lat="47.32929" lon="0.10254">
        <ele>102.1</ele>
        <time>2025-06-11T13:53:44Z</time>
      </trkpt>
      <trkpt lat="47.32983" lon="0.10153">
        <ele>101.4</ele>
        <time>2025-06-11T13:54:04Z</time>
      </trkpt>
      <trkpt lat="47.33018" lon="0.10096">
        <ele>102</ele>
        <time>2025-06-11T13:54:17Z</time>
      </trkpt>
      <trkpt lat="47.33078" lon="0.10022">
        <ele>103</ele>
        <time>2025-06-11T13:54:35Z</time>
      </trkpt>
      <trkpt lat="47.33162" lon="0.09903">
        <ele>103</ele>
        <time>2025-06-11T13:55:02Z</time>
      </trkpt>
      <trkpt lat="47.33197" lon="0.09846">
        <ele>104</ele>
        <time>2025-06-11T13:55:14Z</time>
      </trkpt>
      <trkpt lat="47.33236" lon="0.09795">
        <ele>104</ele>
        <time>2025-06-11T13:55:26Z</time>
      </trkpt>
      <trkpt lat="47.33266" lon="0.09738">
        <ele>104.3</ele>
        <time>2025-06-11T13:55:38Z</time>
      </trkpt>
      <trkpt lat="47.33374" lon="0.09463">
        <ele>103.5</ele>
        <time>2025-06-11T13:56:28Z</time>
      </trkpt>
      <trkpt lat="47.33406" lon="0.09346">
        <ele>104.5</ele>
        <time>2025-06-11T13:56:48Z</time>
      </trkpt>
      <trkpt lat="47.33423" lon="0.09264">
        <ele>105</ele>
        <time>2025-06-11T13:57:02Z</time>
      </trkpt>
      <trkpt lat="47.3343" lon="0.09255">
        <ele>105</ele>
        <time>2025-06-11T13:57:04Z</time>
      </trkpt>
      <trkpt lat="47.33546" lon="0.09405">
        <ele>99.8</ele>
        <time>2025-06-11T13:57:40Z</time>
      </trkpt>
      <trkpt lat="47.33581" lon="0.09462">
        <ele>97.1</ele>
        <time>2025-06-11T13:57:52Z</time>
      </trkpt>
      <trkpt lat="47.33602" lon="0.09506">
        <ele>96.4</ele>
        <time>2025-06-11T13:58:01Z</time>
      </trkpt>
      <trkpt lat="47.3363" lon="0.09526">
        <ele>95.3</ele>
        <time>2025-06-11T13:58:08Z</time>
      </trkpt>
      <trkpt lat="47.33716" lon="0.09631">
        <ele>95.2</ele>
        <time>2025-06-11T13:58:34Z</time>
      </trkpt>
      <trkpt lat="47.33762" lon="0.09724">
        <ele>94.6</ele>
        <time>2025-06-11T13:58:52Z</time>
      </trkpt>
      <trkpt lat="47.33807" lon="0.09797">
        <ele>93.3</ele>
        <time>2025-06-11T13:59:08Z</time>
      </trkpt>
      <trkpt lat="47.33837" lon="0.09877">
        <ele>90.4</ele>
        <time>2025-06-11T13:59:22Z</time>
      </trkpt>
      <trkpt lat="47.33877" lon="0.10056">
        <ele>82</ele>
        <time>2025-06-11T13:59:52Z</time>
      </trkpt>
      <trkpt lat="47.33889" lon="0.10094">
        <ele>80.6</ele>
        <time>2025-06-11T13:59:59Z</time>
      </trkpt>
      <trkpt lat="47.33891" lon="0.10112">
        <ele>80</ele>
        <time>2025-06-11T14:00:02Z</time>
      </trkpt>
      <trkpt lat="47.33887" lon="0.10155">
        <ele>79.9</ele>
        <time>2025-06-11T14:00:08Z</time>
      </trkpt>
      <trkpt lat="47.33883" lon="0.10172">
        <ele>79.9</ele>
        <time>2025-06-11T14:00:11Z</time>
      </trkpt>
      <trkpt lat="47.33869" lon="0.10198">
        <ele>79.7</ele>
        <time>2025-06-11T14:00:16Z</time>
      </trkpt>
      <trkpt lat="47.33839" lon="0.10237">
        <ele>79.4</ele>
        <time>2025-06-11T14:00:26Z</time>
      </trkpt>
      <trkpt lat="47.3381" lon="0.10286">
        <ele>79.5</ele>
        <time>2025-06-11T14:00:36Z</time>
      </trkpt>
      <trkpt lat="47.33767" lon="0.10347">
        <ele>78.2</ele>
        <time>2025-06-11T14:00:50Z</time>
      </trkpt>
      <trkpt lat="47.33732" lon="0.10414">
        <ele>78</ele>
        <time>2025-06-11T14:01:03Z</time>
      </trkpt>
      <trkpt lat="47.3371" lon="0.10466">
        <ele>77.6</ele>
        <time>2025-06-11T14:01:13Z</time>
      </trkpt>
      <trkpt lat="47.33688" lon="0.10551">
        <ele>77.2</ele>
        <time>2025-06-11T14:01:28Z</time>
      </trkpt>
      <trkpt lat="47.33674" lon="0.10628">
        <ele>76.5</ele>
        <time>2025-06-11T14:01:40Z</time>
      </trkpt>
      <trkpt lat="47.33672" lon="0.10677">
        <ele>75.8</ele>
        <time>2025-06-11T14:01:48Z</time>
      </trkpt>
      <trkpt lat="47.33662" lon="0.1074">
        <ele>74.7</ele>
        <time>2025-06-11T14:01:58Z</time>
      </trkpt>
      <trkpt lat="47.33665" lon="0.10811">
        <ele>74.9</ele>
        <time>2025-06-11T14:02:09Z</time>
      </trkpt>
      <trkpt lat="47.33683" lon="0.10903">
        <ele>75.7</ele>
        <time>2025-06-11T14:02:25Z</time>
      </trkpt>
      <trkpt lat="47.33746" lon="0.11057">
        <ele>77.7</ele>
        <time>2025-06-11T14:02:53Z</time>
      </trkpt>
      <trkpt lat="47.33766" lon="0.11119">
        <ele>77.9</ele>
        <time>2025-06-11T14:03:04Z</time>
      </trkpt>
      <trkpt lat="47.33768" lon="0.11149">
        <ele>76.9</ele>
        <time>2025-06-11T14:03:09Z</time>
      </trkpt>
      <trkpt lat="47.33757" lon="0.11209">
        <ele>75.3</ele>
        <time>2025-06-11T14:03:19Z</time>
      </trkpt>
      <trkpt lat="47.33759" lon="0.11218">
        <ele>75.3</ele>
        <time>2025-06-11T14:03:20Z</time>
      </trkpt>
      <trkpt lat="47.33787" lon="0.11246">
        <ele>74.9</ele>
        <time>2025-06-11T14:03:28Z</time>
      </trkpt>
      <trkpt lat="47.3383" lon="0.11308">
        <ele>73.8</ele>
        <time>2025-06-11T14:03:42Z</time>
      </trkpt>
      <trkpt lat="47.33886" lon="0.11361">
        <ele>74.8</ele>
        <time>2025-06-11T14:03:57Z</time>
      </trkpt>
      <trkpt lat="47.3393" lon="0.1138">
        <ele>75.3</ele>
        <time>2025-06-11T14:04:08Z</time>
      </trkpt>
      <trkpt lat="47.33993" lon="0.11422">
        <ele>74.4</ele>
        <time>2025-06-11T14:04:24Z</time>
      </trkpt>
      <trkpt lat="47.34057" lon="0.11449">
        <ele>73.9</ele>
        <time>2025-06-11T14:04:40Z</time>
      </trkpt>
      <trkpt lat="47.34073" lon="0.11531">
        <ele>73.1</ele>
        <time>2025-06-11T14:04:53Z</time>
      </trkpt>
      <trkpt lat="47.34076" lon="0.11566">
        <ele>74</ele>
        <time>2025-06-11T14:04:59Z</time>
      </trkpt>
      <trkpt lat="47.34069" lon="0.11575">
        <ele>74</ele>
        <time>2025-06-11T14:05:01Z</time>
      </trkpt>
      <trkpt lat="47.34012" lon="0.11601">
        <ele>73.8</ele>
        <time>2025-06-11T14:05:15Z</time>
      </trkpt>
      <trkpt lat="47.33926" lon="0.11631">
        <ele>74.4</ele>
        <time>2025-06-11T14:05:36Z</time>
      </trkpt>
      <trkpt lat="47.33903" lon="0.11631">
        <ele>74.1</ele>
        <time>2025-06-11T14:05:41Z</time>
      </trkpt>
      <trkpt lat="47.33827" lon="0.11614">
        <ele>73.1</ele>
        <time>2025-06-11T14:05:59Z</time>
      </trkpt>
      <trkpt lat="47.3376" lon="0.11619">
        <ele>73.3</ele>
        <time>2025-06-11T14:06:15Z</time>
      </trkpt>
      <trkpt lat="47.33661" lon="0.11641">
        <ele>74.1</ele>
        <time>2025-06-11T14:06:38Z</time>
      </trkpt>
      <trkpt lat="47.3357" lon="0.11686">
        <ele>74.6</ele>
        <time>2025-06-11T14:07:01Z</time>
      </trkpt>
      <trkpt lat="47.33508" lon="0.11709">
        <ele>74.7</ele>
        <time>2025-06-11T14:07:15Z</time>
      </trkpt>
      <trkpt lat="47.33339" lon="0.11738">
        <ele>71.8</ele>
        <time>2025-06-11T14:07:55Z</time>
      </trkpt>
      <trkpt lat="47.33161" lon="0.11761">
        <ele>72.2</ele>
        <time>2025-06-11T14:08:37Z</time>
      </trkpt>
      <trkpt lat="47.33155" lon="0.11766">
        <ele>72.2</ele>
        <time>2025-06-11T14:08:39Z</time>
      </trkpt>
      <trkpt lat="47.33152" lon="0.11778">
        <ele>72.5</ele>
        <time>2025-06-11T14:08:41Z</time>
      </trkpt>
      <trkpt lat="47.33161" lon="0.11839">
        <ele>74.2</ele>
        <time>2025-06-11T14:08:50Z</time>
      </trkpt>
      <trkpt lat="47.3316" lon="0.11894">
        <ele>75.7</ele>
        <time>2025-06-11T14:08:59Z</time>
      </trkpt>
      <trkpt lat="47.33145" lon="0.11975">
        <ele>79.7</ele>
        <time>2025-06-11T14:09:12Z</time>
      </trkpt>
      <trkpt lat="47.33106" lon="0.12131">
        <ele>91.2</ele>
        <time>2025-06-11T14:09:39Z</time>
      </trkpt>
      <trkpt lat="47.33097" lon="0.12151">
        <ele>93</ele>
        <time>2025-06-11T14:09:43Z</time>
      </trkpt>
      <trkpt lat="47.33093" lon="0.12181">
        <ele>94.5</ele>
        <time>2025-06-11T14:09:47Z</time>
      </trkpt>
      <trkpt lat="47.331" lon="0.12248">
        <ele>96.7</ele>
        <time>2025-06-11T14:09:58Z</time>
      </trkpt>
      <trkpt lat="47.33124" lon="0.1236">
        <ele>101</ele>
        <time>2025-06-11T14:10:17Z</time>
      </trkpt>
      <trkpt lat="47.33127" lon="0.12446">
        <ele>103.5</ele>
        <time>2025-06-11T14:10:30Z</time>
      </trkpt>
      <trkpt lat="47.33138" lon="0.12531">
        <ele>105</ele>
        <time>2025-06-11T14:10:44Z</time>
      </trkpt>
      <trkpt lat="47.3315" lon="0.12568">
        <ele>105.3</ele>
        <time>2025-06-11T14:10:51Z</time>
      </trkpt>
      <trkpt lat="47.33182" lon="0.12638">
        <ele>105.4</ele>
        <time>2025-06-11T14:11:04Z</time>
      </trkpt>
      <trkpt lat="47.33188" lon="0.1267">
        <ele>106</ele>
        <time>2025-06-11T14:11:09Z</time>
      </trkpt>
      <trkpt lat="47.33192" lon="0.12698">
        <ele>106</ele>
        <time>2025-06-11T14:11:14Z</time>
      </trkpt>
      <trkpt lat="47.33188" lon="0.12745">
        <ele>106.2</ele>
        <time>2025-06-11T14:11:21Z</time>
      </trkpt>
      <trkpt lat="47.33189" lon="0.1283">
        <ele>106.2</ele>
        <time>2025-06-11T14:11:35Z</time>
      </trkpt>
      <trkpt lat="47.33173" lon="0.129">
        <ele>106</ele>
        <time>2025-06-11T14:11:46Z</time>
      </trkpt>
      <trkpt lat="47.33144" lon="0.12987">
        <ele>106.8</ele>
        <time>2025-06-11T14:12:02Z</time>
      </trkpt>
      <trkpt lat="47.33091" lon="0.13172">
        <ele>107</ele>
        <time>2025-06-11T14:12:33Z</time>
      </trkpt>
      <trkpt lat="47.33057" lon="0.13233">
        <ele>107.4</ele>
        <time>2025-06-11T14:12:46Z</time>
      </trkpt>
      <trkpt lat="47.32835" lon="0.13546">
        <ele>107.6</ele>
        <time>2025-06-11T14:13:58Z</time>
      </trkpt>
      <trkpt lat="47.32796" lon="0.13577">
        <ele>108</ele>
        <time>2025-06-11T14:14:08Z</time>
      </trkpt>
      <trkpt lat="47.32745" lon="0.13631">
        <ele>108.1</ele>
        <time>2025-06-11T14:14:23Z</time>
      </trkpt>
      <trkpt lat="47.32559" lon="0.13866">
        <ele>109</ele>
        <time>2025-06-11T14:15:20Z</time>
      </trkpt>
      <trkpt lat="47.3252" lon="0.13902">
        <ele>109.1</ele>
        <time>2025-06-11T14:15:31Z</time>
      </trkpt>
      <trkpt lat="47.32503" lon="0.13923">
        <ele>109</ele>
        <time>2025-06-11T14:15:36Z</time>
      </trkpt>
      <trkpt lat="47.32458" lon="0.13949">
        <ele>110</ele>
        <time>2025-06-11T14:15:47Z</time>
      </trkpt>
      <trkpt lat="47.32348" lon="0.14031">
        <ele>110</ele>
        <time>2025-06-11T14:16:16Z</time>
      </trkpt>
      <trkpt lat="47.32341" lon="0.14047">
        <ele>110</ele>
        <time>2025-06-11T14:16:19Z</time>
      </trkpt>
      <trkpt lat="47.3234" lon="0.14078">
        <ele>110</ele>
        <time>2025-06-11T14:16:24Z</time>
      </trkpt>
      <trkpt lat="47.32346" lon="0.14119">
        <ele>110</ele>
        <time>2025-06-11T14:16:30Z</time>
      </trkpt>
      <trkpt lat="47.32367" lon="0.14196">
        <ele>110</ele>
        <time>2025-06-11T14:16:44Z</time>
      </trkpt>
      <trkpt lat="47.32382" lon="0.14329">
        <ele>108</ele>
        <time>2025-06-11T14:17:05Z</time>
      </trkpt>
      <trkpt lat="47.32397" lon="0.14375">
        <ele>106.7</ele>
        <time>2025-06-11T14:17:13Z</time>
      </trkpt>
      <trkpt lat="47.32429" lon="0.14518">
        <ele>104.4</ele>
        <time>2025-06-11T14:17:37Z</time>
      </trkpt>
      <trkpt lat="47.32447" lon="0.14578">
        <ele>104</ele>
        <time>2025-06-11T14:17:47Z</time>
      </trkpt>
      <trkpt lat="47.32494" lon="0.14693">
        <ele>103</ele>
        <time>2025-06-11T14:18:08Z</time>
      </trkpt>
      <trkpt lat="47.32515" lon="0.14765">
        <ele>103.5</ele>
        <time>2025-06-11T14:18:21Z</time>
      </trkpt>
      <trkpt lat="47.32529" lon="0.14785">
        <ele>103.8</ele>
        <time>2025-06-11T14:18:25Z</time>
      </trkpt>
      <trkpt lat="47.32555" lon="0.14806">
        <ele>104</ele>
        <time>2025-06-11T14:18:32Z</time>
      </trkpt>
      <trkpt lat="47.32582" lon="0.14807">
        <ele>104</ele>
        <time>2025-06-11T14:18:39Z</time>
      </trkpt>
      <trkpt lat="47.32636" lon="0.14827">
        <ele>105</ele>
        <time>2025-06-11T14:18:52Z</time>
      </trkpt>
      <trkpt lat="47.32669" lon="0.14844">
        <ele>105</ele>
        <time>2025-06-11T14:19:00Z</time>
      </trkpt>
      <trkpt lat="47.32685" lon="0.14861">
        <ele>105</ele>
        <time>2025-06-11T14:19:04Z</time>
      </trkpt>
      <trkpt lat="47.32707" lon="0.14901">
        <ele>105</ele>
        <time>2025-06-11T14:19:13Z</time>
      </trkpt>
      <trkpt lat="47.32716" lon="0.14926">
        <ele>105</ele>
        <time>2025-06-11T14:19:17Z</time>
      </trkpt>
      <trkpt lat="47.32729" lon="0.15045">
        <ele>103.4</ele>
        <time>2025-06-11T14:19:36Z</time>
      </trkpt>
      <trkpt lat="47.32748" lon="0.15094">
        <ele>101.6</ele>
        <time>2025-06-11T14:19:45Z</time>
      </trkpt>
      <trkpt lat="47.32772" lon="0.15116">
        <ele>100.8</ele>
        <time>2025-06-11T14:19:52Z</time>
      </trkpt>
      <trkpt lat="47.32817" lon="0.15137">
        <ele>98.2</ele>
        <time>2025-06-11T14:20:03Z</time>
      </trkpt>
      <trkpt lat="47.32866" lon="0.15167">
        <ele>94.5</ele>
        <time>2025-06-11T14:20:15Z</time>
      </trkpt>
      <trkpt lat="47.32887" lon="0.15169">
        <ele>92.2</ele>
        <time>2025-06-11T14:20:20Z</time>
      </trkpt>
      <trkpt lat="47.32932" lon="0.15163">
        <ele>85.5</ele>
        <time>2025-06-11T14:20:31Z</time>
      </trkpt>
      <trkpt lat="47.32963" lon="0.15173">
        <ele>81</ele>
        <time>2025-06-11T14:20:38Z</time>
      </trkpt>
      <trkpt lat="47.33002" lon="0.15196">
        <ele>75.8</ele>
        <time>2025-06-11T14:20:48Z</time>
      </trkpt>
      <trkpt lat="47.33038" lon="0.15242">
        <ele>71.9</ele>
        <time>2025-06-11T14:20:59Z</time>
      </trkpt>
      <trkpt lat="47.33071" lon="0.15266">
        <ele>69.1</ele>
        <time>2025-06-11T14:21:07Z</time>
      </trkpt>
      <trkpt lat="47.33087" lon="0.15262">
        <ele>68.5</ele>
        <time>2025-06-11T14:21:11Z</time>
      </trkpt>
      <trkpt lat="47.33124" lon="0.15213">
        <ele>68</ele>
        <time>2025-06-11T14:21:23Z</time>
      </trkpt>
      <trkpt lat="47.33151" lon="0.15189">
        <ele>68.1</ele>
        <time>2025-06-11T14:21:30Z</time>
      </trkpt>
      <trkpt lat="47.33186" lon="0.15185">
        <ele>69</ele>
        <time>2025-06-11T14:21:38Z</time>
      </trkpt>
      <trkpt lat="47.33213" lon="0.15187">
        <ele>69.3</ele>
        <time>2025-06-11T14:21:45Z</time>
      </trkpt>
      <trkpt lat="47.3322" lon="0.15191">
        <ele>69.1</ele>
        <time>2025-06-11T14:21:46Z</time>
      </trkpt>
      <trkpt lat="47.33241" lon="0.15241">
        <ele>67.3</ele>
        <time>2025-06-11T14:21:56Z</time>
      </trkpt>
      <trkpt lat="47.33261" lon="0.15325">
        <ele>68.5</ele>
        <time>2025-06-11T14:22:10Z</time>
      </trkpt>
      <trkpt lat="47.33262" lon="0.15353">
        <ele>70.6</ele>
        <time>2025-06-11T14:22:14Z</time>
      </trkpt>
      <trkpt lat="47.33242" lon="0.15395">
        <ele>73.9</ele>
        <time>2025-06-11T14:22:22Z</time>
      </trkpt>
      <trkpt lat="47.33241" lon="0.15404">
        <ele>75.4</ele>
        <time>2025-06-11T14:22:24Z</time>
      </trkpt>
      <trkpt lat="47.33243" lon="0.15407">
        <ele>76.3</ele>
        <time>2025-06-11T14:22:25Z</time>
      </trkpt>
      <trkpt lat="47.33287" lon="0.15408">
        <ele>82.4</ele>
        <time>2025-06-11T14:22:35Z</time>
      </trkpt>
      <trkpt lat="47.33313" lon="0.1542">
        <ele>86.7</ele>
        <time>2025-06-11T14:22:41Z</time>
      </trkpt>
      <trkpt lat="47.33328" lon="0.15438">
        <ele>89.3</ele>
        <time>2025-06-11T14:22:46Z</time>
      </trkpt>
      <trkpt lat="47.33346" lon="0.15482">
        <ele>95.2</ele>
        <time>2025-06-11T14:22:54Z</time>
      </trkpt>
      <trkpt lat="47.33419" lon="0.15536">
        <ele>98</ele>
        <time>2025-06-11T14:23:13Z</time>
      </trkpt>
      <trkpt lat="47.33492" lon="0.15616">
        <ele>98</ele>
        <time>2025-06-11T14:23:34Z</time>
      </trkpt>
      <trkpt lat="47.33591" lon="0.15679">
        <ele>98.4</ele>
        <time>2025-06-11T14:23:59Z</time>
      </trkpt>
      <trkpt lat="47.33599" lon="0.15697">
        <ele>97.9</ele>
        <time>2025-06-11T14:24:03Z</time>
      </trkpt>
      <trkpt lat="47.33593" lon="0.15796">
        <ele>95.3</ele>
        <time>2025-06-11T14:24:18Z</time>
      </trkpt>
      <trkpt lat="47.33597" lon="0.15826">
        <ele>95</ele>
        <time>2025-06-11T14:24:23Z</time>
      </trkpt>
      <trkpt lat="47.33609" lon="0.15848">
        <ele>95</ele>
        <time>2025-06-11T14:24:28Z</time>
      </trkpt>
      <trkpt lat="47.33624" lon="0.15837">
        <ele>95.5</ele>
        <time>2025-06-11T14:24:32Z</time>
      </trkpt>
      <trkpt lat="47.33649" lon="0.15788">
        <ele>96.4</ele>
        <time>2025-06-11T14:24:41Z</time>
      </trkpt>
      <trkpt lat="47.33665" lon="0.15771">
        <ele>97</ele>
        <time>2025-06-11T14:24:46Z</time>
      </trkpt>
      <trkpt lat="47.33713" lon="0.15821">
        <ele>97</ele>
        <time>2025-06-11T14:25:00Z</time>
      </trkpt>
      <trkpt lat="47.33759" lon="0.15888">
        <ele>94.7</ele>
        <time>2025-06-11T14:25:15Z</time>
      </trkpt>
      <trkpt lat="47.33805" lon="0.15976">
        <ele>92</ele>
        <time>2025-06-11T14:25:32Z</time>
      </trkpt>
      <trkpt lat="47.33842" lon="0.16078">
        <ele>94.6</ele>
        <time>2025-06-11T14:25:51Z</time>
      </trkpt>
      <trkpt lat="47.33894" lon="0.16188">
        <ele>99</ele>
        <time>2025-06-11T14:26:12Z</time>
      </trkpt>
      <trkpt lat="47.33914" lon="0.16246">
        <ele>99.9</ele>
        <time>2025-06-11T14:26:22Z</time>
      </trkpt>
      <trkpt lat="47.33952" lon="0.16298">
        <ele>100.3</ele>
        <time>2025-06-11T14:26:34Z</time>
      </trkpt>
      <trkpt lat="47.34031" lon="0.16424">
        <ele>102</ele>
        <time>2025-06-11T14:27:01Z</time>
      </trkpt>
      <trkpt lat="47.34045" lon="0.16453">
        <ele>102</ele>
        <time>2025-06-11T14:27:07Z</time>
      </trkpt>
      <trkpt lat="47.34044" lon="0.16468">
        <ele>102</ele>
        <time>2025-06-11T14:27:10Z</time>
      </trkpt>
      <trkpt lat="47.3404" lon="0.16472">
        <ele>102</ele>
        <time>2025-06-11T14:27:11Z</time>
      </trkpt>
      <trkpt lat="47.34" lon="0.16488">
        <ele>101</ele>
        <time>2025-06-11T14:27:20Z</time>
      </trkpt>
      <trkpt lat="47.33967" lon="0.16508">
        <ele>100.9</ele>
        <time>2025-06-11T14:27:29Z</time>
      </trkpt>
      <trkpt lat="47.33934" lon="0.16529">
        <ele>100.6</ele>
        <time>2025-06-11T14:27:37Z</time>
      </trkpt>
      <trkpt lat="47.33905" lon="0.16554">
        <ele>100.5</ele>
        <time>2025-06-11T14:27:45Z</time>
      </trkpt>
      <trkpt lat="47.3389" lon="0.16571">
        <ele>100</ele>
        <time>2025-06-11T14:27:49Z</time>
      </trkpt>
      <trkpt lat="47.33864" lon="0.16614">
        <ele>100</ele>
        <time>2025-06-11T14:27:58Z</time>
      </trkpt>
      <trkpt lat="47.33815" lon="0.16659">
        <ele>99.3</ele>
        <time>2025-06-11T14:28:12Z</time>
      </trkpt>
      <trkpt lat="47.33808" lon="0.1666">
        <ele>99.1</ele>
        <time>2025-06-11T14:28:14Z</time>
      </trkpt>
      <trkpt lat="47.33804" lon="0.1667">
        <ele>99</ele>
        <time>2025-06-11T14:28:15Z</time>
      </trkpt>
      <trkpt lat="47.33798" lon="0.1677">
        <ele>99.7</ele>
        <time>2025-06-11T14:28:31Z</time>
      </trkpt>
      <trkpt lat="47.33798" lon="0.16841">
        <ele>99.7</ele>
        <time>2025-06-11T14:28:43Z</time>
      </trkpt>
      <trkpt lat="47.33804" lon="0.16928">
        <ele>99.5</ele>
        <time>2025-06-11T14:28:56Z</time>
      </trkpt>
      <trkpt lat="47.33891" lon="0.17141">
        <ele>94</ele>
        <time>2025-06-11T14:29:36Z</time>
      </trkpt>
      <trkpt lat="47.339" lon="0.17187">
        <ele>92.7</ele>
        <time>2025-06-11T14:29:43Z</time>
      </trkpt>
      <trkpt lat="47.33884" lon="0.17309">
        <ele>87.7</ele>
        <time>2025-06-11T14:30:03Z</time>
      </trkpt>
      <trkpt lat="47.33874" lon="0.1735">
        <ele>85.6</ele>
        <time>2025-06-11T14:30:10Z</time>
      </trkpt>
      <trkpt lat="47.33868" lon="0.17469">
        <ele>79.5</ele>
        <time>2025-06-11T14:30:29Z</time>
      </trkpt>
      <trkpt lat="47.3386" lon="0.17486">
        <ele>78</ele>
        <time>2025-06-11T14:30:32Z</time>
      </trkpt>
      <trkpt lat="47.33844" lon="0.17506">
        <ele>76.4</ele>
        <time>2025-06-11T14:30:37Z</time>
      </trkpt>
      <trkpt lat="47.33823" lon="0.1755">
        <ele>72</ele>
        <time>2025-06-11T14:30:45Z</time>
      </trkpt>
      <trkpt lat="47.33786" lon="0.17593">
        <ele>68.2</ele>
        <time>2025-06-11T14:30:56Z</time>
      </trkpt>
      <trkpt lat="47.33809" lon="0.17588">
        <ele>68.8</ele>
        <time>2025-06-11T14:31:02Z</time>
      </trkpt>
      <trkpt lat="47.33864" lon="0.17589">
        <ele>69.9</ele>
        <time>2025-06-11T14:31:15Z</time>
      </trkpt>
      <trkpt lat="47.33891" lon="0.17585">
        <ele>71.1</ele>
        <time>2025-06-11T14:31:21Z</time>
      </trkpt>
      <trkpt lat="47.33927" lon="0.17573">
        <ele>72.8</ele>
        <time>2025-06-11T14:31:30Z</time>
      </trkpt>
      <trkpt lat="47.33954" lon="0.17557">
        <ele>73.7</ele>
        <time>2025-06-11T14:31:36Z</time>
      </trkpt>
      <trkpt lat="47.34044" lon="0.17471">
        <ele>79.1</ele>
        <time>2025-06-11T14:32:01Z</time>
      </trkpt>
      <trkpt lat="47.34063" lon="0.17441">
        <ele>79.2</ele>
        <time>2025-06-11T14:32:08Z</time>
      </trkpt>
      <trkpt lat="47.34112" lon="0.17379">
        <ele>79.7</ele>
        <time>2025-06-11T14:32:23Z</time>
      </trkpt>
      <trkpt lat="47.34151" lon="0.17318">
        <ele>80.6</ele>
        <time>2025-06-11T14:32:36Z</time>
      </trkpt>
      <trkpt lat="47.34163" lon="0.17307">
        <ele>80.9</ele>
        <time>2025-06-11T14:32:40Z</time>
      </trkpt>
      <trkpt lat="47.34194" lon="0.17311">
        <ele>83.5</ele>
        <time>2025-06-11T14:32:47Z</time>
      </trkpt>
      <trkpt lat="47.34224" lon="0.1732">
        <ele>88.2</ele>
        <time>2025-06-11T14:32:54Z</time>
      </trkpt>
      <trkpt lat="47.34255" lon="0.17335">
        <ele>91.2</ele>
        <time>2025-06-11T14:33:02Z</time>
      </trkpt>
      <trkpt lat="47.34295" lon="0.17382">
        <ele>93.5</ele>
        <time>2025-06-11T14:33:14Z</time>
      </trkpt>
      <trkpt lat="47.34298" lon="0.174">
        <ele>93.8</ele>
        <time>2025-06-11T14:33:17Z</time>
      </trkpt>
      <trkpt lat="47.34296" lon="0.17421">
        <ele>94.1</ele>
        <time>2025-06-11T14:33:20Z</time>
      </trkpt>
      <trkpt lat="47.34284" lon="0.17455">
        <ele>95.2</ele>
        <time>2025-06-11T14:33:26Z</time>
      </trkpt>
      <trkpt lat="47.34226" lon="0.17562">
        <ele>98.2</ele>
        <time>2025-06-11T14:33:48Z</time>
      </trkpt>
      <trkpt lat="47.34198" lon="0.17634">
        <ele>99.1</ele>
        <time>2025-06-11T14:34:01Z</time>
      </trkpt>
      <trkpt lat="47.34149" lon="0.17722">
        <ele>100.4</ele>
        <time>2025-06-11T14:34:19Z</time>
      </trkpt>
      <trkpt lat="47.34071" lon="0.17798">
        <ele>98.2</ele>
        <time>2025-06-11T14:34:41Z</time>
      </trkpt>
      <trkpt lat="47.34034" lon="0.17819">
        <ele>97.7</ele>
        <time>2025-06-11T14:34:50Z</time>
      </trkpt>
      <trkpt lat="47.3403" lon="0.17827">
        <ele>97.9</ele>
        <time>2025-06-11T14:34:51Z</time>
      </trkpt>
      <trkpt lat="47.34028" lon="0.17852">
        <ele>98.7</ele>
        <time>2025-06-11T14:34:55Z</time>
      </trkpt>
      <trkpt lat="47.34018" lon="0.17866">
        <ele>98.6</ele>
        <time>2025-06-11T14:34:59Z</time>
      </trkpt>
      <trkpt lat="47.3395" lon="0.17897">
        <ele>94.7</ele>
        <time>2025-06-11T14:35:15Z</time>
      </trkpt>
      <trkpt lat="47.33945" lon="0.17945">
        <ele>92</ele>
        <time>2025-06-11T14:35:23Z</time>
      </trkpt>
      <trkpt lat="47.33939" lon="0.1796">
        <ele>90.9</ele>
        <time>2025-06-11T14:35:26Z</time>
      </trkpt>
      <trkpt lat="47.33921" lon="0.17972">
        <ele>88.5</ele>
        <time>2025-06-11T14:35:30Z</time>
      </trkpt>
      <trkpt lat="47.33869" lon="0.17992">
        <ele>82.5</ele>
        <time>2025-06-11T14:35:43Z</time>
      </trkpt>
      <trkpt lat="47.33862" lon="0.17998">
        <ele>81.3</ele>
        <time>2025-06-11T14:35:45Z</time>
      </trkpt>
      <trkpt lat="47.33817" lon="0.18059">
        <ele>77.9</ele>
        <time>2025-06-11T14:35:59Z</time>
      </trkpt>
      <trkpt lat="47.33749" lon="0.18128">
        <ele>71.8</ele>
        <time>2025-06-11T14:36:18Z</time>
      </trkpt>
      <trkpt lat="47.33711" lon="0.18187">
        <ele>67.5</ele>
        <time>2025-06-11T14:36:31Z</time>
      </trkpt>
      <trkpt lat="47.3369" lon="0.18235">
        <ele>63.5</ele>
        <time>2025-06-11T14:36:40Z</time>
      </trkpt>
      <trkpt lat="47.33674" lon="0.18292">
        <ele>59.9</ele>
        <time>2025-06-11T14:36:50Z</time>
      </trkpt>
      <trkpt lat="47.33657" lon="0.18312">
        <ele>57.2</ele>
        <time>2025-06-11T14:36:55Z</time>
      </trkpt>
      <trkpt lat="47.33613" lon="0.18351">
        <ele>54.4</ele>
        <time>2025-06-11T14:37:07Z</time>
      </trkpt>
      <trkpt lat="47.3358" lon="0.18374">
        <ele>55.9</ele>
        <time>2025-06-11T14:37:16Z</time>
      </trkpt>
      <trkpt lat="47.33571" lon="0.18377">
        <ele>57.3</ele>
        <time>2025-06-11T14:37:18Z</time>
      </trkpt>
      <trkpt lat="47.33563" lon="0.18371">
        <ele>58.3</ele>
        <time>2025-06-11T14:37:20Z</time>
      </trkpt>
      <trkpt lat="47.33542" lon="0.18299">
        <ele>59.2</ele>
        <time>2025-06-11T14:37:32Z</time>
      </trkpt>
      <trkpt lat="47.33518" lon="0.18193">
        <ele>59.7</ele>
        <time>2025-06-11T14:37:50Z</time>
      </trkpt>
      <trkpt lat="47.33509" lon="0.1817">
        <ele>60.4</ele>
        <time>2025-06-11T14:37:54Z</time>
      </trkpt>
      <trkpt lat="47.33467" lon="0.18136">
        <ele>63.5</ele>
        <time>2025-06-11T14:38:05Z</time>
      </trkpt>
      <trkpt lat="47.33442" lon="0.18106">
        <ele>65.1</ele>
        <time>2025-06-11T14:38:13Z</time>
      </trkpt>
      <trkpt lat="47.33409" lon="0.18076">
        <ele>66</ele>
        <time>2025-06-11T14:38:22Z</time>
      </trkpt>
      <trkpt lat="47.33393" lon="0.18068">
        <ele>66.3</ele>
        <time>2025-06-11T14:38:26Z</time>
      </trkpt>
      <trkpt lat="47.3338" lon="0.18071">
        <ele>67.1</ele>
        <time>2025-06-11T14:38:29Z</time>
      </trkpt>
      <trkpt lat="47.33336" lon="0.18099">
        <ele>70.2</ele>
        <time>2025-06-11T14:38:40Z</time>
      </trkpt>
      <trkpt lat="47.33305" lon="0.1809">
        <ele>70.2</ele>
        <time>2025-06-11T14:38:47Z</time>
      </trkpt>
      <trkpt lat="47.33292" lon="0.18091">
        <ele>70.3</ele>
        <time>2025-06-11T14:38:51Z</time>
      </trkpt>
      <trkpt lat="47.33238" lon="0.18136">
        <ele>72.4</ele>
        <time>2025-06-11T14:39:05Z</time>
      </trkpt>
      <trkpt lat="47.33203" lon="0.18177">
        <ele>75.4</ele>
        <time>2025-06-11T14:39:15Z</time>
      </trkpt>
      <trkpt lat="47.33179" lon="0.18223">
        <ele>77.1</ele>
        <time>2025-06-11T14:39:25Z</time>
      </trkpt>
      <trkpt lat="47.33161" lon="0.18233">
        <ele>78.7</ele>
        <time>2025-06-11T14:39:29Z</time>
      </trkpt>
      <trkpt lat="47.33131" lon="0.18262">
        <ele>81.4</ele>
        <time>2025-06-11T14:39:38Z</time>
      </trkpt>
      <trkpt lat="47.33066" lon="0.18306">
        <ele>84.7</ele>
        <time>2025-06-11T14:39:54Z</time>
      </trkpt>
      <trkpt lat="47.33058" lon="0.18308">
        <ele>85.1</ele>
        <time>2025-06-11T14:39:56Z</time>
      </trkpt>
      <trkpt lat="47.32999" lon="0.18299">
        <ele>86.5</ele>
        <time>2025-06-11T14:40:10Z</time>
      </trkpt>
      <trkpt lat="47.32969" lon="0.18284">
        <ele>88.9</ele>
        <time>2025-06-11T14:40:17Z</time>
      </trkpt>
      <trkpt lat="47.32954" lon="0.18282">
        <ele>89.5</ele>
        <time>2025-06-11T14:40:21Z</time>
      </trkpt>
      <trkpt lat="47.32903" lon="0.18337">
        <ele>93</ele>
        <time>2025-06-11T14:40:36Z</time>
      </trkpt>
      <trkpt lat="47.32899" lon="0.18374">
        <ele>93.7</ele>
        <time>2025-06-11T14:40:42Z</time>
      </trkpt>
      <trkpt lat="47.32901" lon="0.18393">
        <ele>94.3</ele>
        <time>2025-06-11T14:40:45Z</time>
      </trkpt>
      <trkpt lat="47.32909" lon="0.18415">
        <ele>94.5</ele>
        <time>2025-06-11T14:40:49Z</time>
      </trkpt>
      <trkpt lat="47.32917" lon="0.18425">
        <ele>94.3</ele>
        <time>2025-06-11T14:40:51Z</time>
      </trkpt>
      <trkpt lat="47.32938" lon="0.18434">
        <ele>94.3</ele>
        <time>2025-06-11T14:40:56Z</time>
      </trkpt>
      <trkpt lat="47.32952" lon="0.18445">
        <ele>95</ele>
        <time>2025-06-11T14:41:00Z</time>
      </trkpt>
      <trkpt lat="47.32965" lon="0.18462">
        <ele>95.6</ele>
        <time>2025-06-11T14:41:04Z</time>
      </trkpt>
      <trkpt lat="47.32985" lon="0.18521">
        <ele>97.3</ele>
        <time>2025-06-11T14:41:14Z</time>
      </trkpt>
      <trkpt lat="47.33" lon="0.18582">
        <ele>97</ele>
        <time>2025-06-11T14:41:25Z</time>
      </trkpt>
      <trkpt lat="47.33004" lon="0.18688">
        <ele>93.8</ele>
        <time>2025-06-11T14:41:41Z</time>
      </trkpt>
      <trkpt lat="47.32988" lon="0.18727">
        <ele>92.4</ele>
        <time>2025-06-11T14:41:49Z</time>
      </trkpt>
      <trkpt lat="47.32985" lon="0.18744">
        <ele>91.2</ele>
        <time>2025-06-11T14:41:51Z</time>
      </trkpt>
      <trkpt lat="47.32969" lon="0.18753">
        <ele>91.8</ele>
        <time>2025-06-11T14:41:55Z</time>
      </trkpt>
      <trkpt lat="47.32936" lon="0.18761">
        <ele>92.4</ele>
        <time>2025-06-11T14:42:03Z</time>
      </trkpt>
      <trkpt lat="47.32912" lon="0.18755">
        <ele>94.5</ele>
        <time>2025-06-11T14:42:09Z</time>
      </trkpt>
      <trkpt lat="47.32894" lon="0.18755">
        <ele>94.5</ele>
        <time>2025-06-11T14:42:13Z</time>
      </trkpt>
      <trkpt lat="47.32835" lon="0.18731">
        <ele>97.7</ele>
        <time>2025-06-11T14:42:27Z</time>
      </trkpt>
      <trkpt lat="47.3282" lon="0.1872">
        <ele>99.6</ele>
        <time>2025-06-11T14:42:31Z</time>
      </trkpt>
      <trkpt lat="47.32797" lon="0.18711">
        <ele>100.5</ele>
        <time>2025-06-11T14:42:37Z</time>
      </trkpt>
      <trkpt lat="47.32782" lon="0.18714">
        <ele>100.5</ele>
        <time>2025-06-11T14:42:40Z</time>
      </trkpt>
      <trkpt lat="47.32773" lon="0.18725">
        <ele>99.8</ele>
        <time>2025-06-11T14:42:43Z</time>
      </trkpt>
      <trkpt lat="47.32755" lon="0.18735">
        <ele>99.1</ele>
        <time>2025-06-11T14:42:48Z</time>
      </trkpt>
      <trkpt lat="47.3271" lon="0.1875">
        <ele>98.4</ele>
        <time>2025-06-11T14:42:58Z</time>
      </trkpt>
      <trkpt lat="47.32629" lon="0.18734">
        <ele>98.5</ele>
        <time>2025-06-11T14:43:17Z</time>
      </trkpt>
      <trkpt lat="47.32601" lon="0.18737">
        <ele>97.7</ele>
        <time>2025-06-11T14:43:24Z</time>
      </trkpt>
      <trkpt lat="47.32518" lon="0.1879">
        <ele>90.7</ele>
        <time>2025-06-11T14:43:45Z</time>
      </trkpt>
      <trkpt lat="47.32473" lon="0.18826">
        <ele>86.8</ele>
        <time>2025-06-11T14:43:57Z</time>
      </trkpt>
      <trkpt lat="47.32455" lon="0.18855">
        <ele>83.4</ele>
        <time>2025-06-11T14:44:03Z</time>
      </trkpt>
      <trkpt lat="47.32434" lon="0.18927">
        <ele>74.9</ele>
        <time>2025-06-11T14:44:16Z</time>
      </trkpt>
      <trkpt lat="47.32423" lon="0.18942">
        <ele>73.3</ele>
        <time>2025-06-11T14:44:19Z</time>
      </trkpt>
      <trkpt lat="47.32323" lon="0.18986">
        <ele>62.1</ele>
        <time>2025-06-11T14:44:44Z</time>
      </trkpt>
      <trkpt lat="47.32273" lon="0.19001">
        <ele>62.1</ele>
        <time>2025-06-11T14:44:55Z</time>
      </trkpt>
      <trkpt lat="47.32211" lon="0.19043">
        <ele>57.9</ele>
        <time>2025-06-11T14:45:11Z</time>
      </trkpt>
      <trkpt lat="47.32159" lon="0.19091">
        <ele>53.2</ele>
        <time>2025-06-11T14:45:26Z</time>
      </trkpt>
      <trkpt lat="47.32147" lon="0.1909">
        <ele>52.3</ele>
        <time>2025-06-11T14:45:29Z</time>
      </trkpt>
      <trkpt lat="47.32139" lon="0.19079">
        <ele>52</ele>
        <time>2025-06-11T14:45:31Z</time>
      </trkpt>
      <trkpt lat="47.32067" lon="0.18858">
        <ele>56.1</ele>
        <time>2025-06-11T14:46:10Z</time>
      </trkpt>
      <trkpt lat="47.32039" lon="0.18802">
        <ele>57.2</ele>
        <time>2025-06-11T14:46:21Z</time>
      </trkpt>
      <trkpt lat="47.32037" lon="0.18772">
        <ele>58.4</ele>
        <time>2025-06-11T14:46:26Z</time>
      </trkpt>
      <trkpt lat="47.3204" lon="0.18745">
        <ele>60.9</ele>
        <time>2025-06-11T14:46:30Z</time>
      </trkpt>
      <trkpt lat="47.32028" lon="0.18685">
        <ele>60.1</ele>
        <time>2025-06-11T14:46:40Z</time>
      </trkpt>
      <trkpt lat="47.32026" lon="0.18597">
        <ele>58.6</ele>
        <time>2025-06-11T14:46:54Z</time>
      </trkpt>
      <trkpt lat="47.32004" lon="0.18545">
        <ele>54.9</ele>
        <time>2025-06-11T14:47:04Z</time>
      </trkpt>
      <trkpt lat="47.31991" lon="0.18482">
        <ele>51.9</ele>
        <time>2025-06-11T14:47:14Z</time>
      </trkpt>
      <trkpt lat="47.31999" lon="0.18405">
        <ele>52.5</ele>
        <time>2025-06-11T14:47:26Z</time>
      </trkpt>
      <trkpt lat="47.31993" lon="0.18394">
        <ele>51.4</ele>
        <time>2025-06-11T14:47:29Z</time>
      </trkpt>
      <trkpt lat="47.31984" lon="0.18395">
        <ele>50.4</ele>
        <time>2025-06-11T14:47:31Z</time>
      </trkpt>
      <trkpt lat="47.31979" lon="0.1843">
        <ele>50</ele>
        <time>2025-06-11T14:47:36Z</time>
      </trkpt>
      <trkpt lat="47.31975" lon="0.1843">
        <ele>49.4</ele>
        <time>2025-06-11T14:47:37Z</time>
      </trkpt>
      <trkpt lat="47.31976" lon="0.18422">
        <ele>49.5</ele>
        <time>2025-06-11T14:47:39Z</time>
      </trkpt>
      <trkpt lat="47.31981" lon="0.18422">
        <ele>50.3</ele>
        <time>2025-06-11T14:47:40Z</time>
      </trkpt>
      <trkpt lat="47.31983" lon="0.18428">
        <ele>50.6</ele>
        <time>2025-06-11T14:47:41Z</time>
      </trkpt>
      <trkpt lat="47.31978" lon="0.18419">
        <ele>49.8</ele>
        <time>2025-06-11T14:47:43Z</time>
      </trkpt>
      <trkpt lat="47.32028" lon="0.18188">
        <ele>50</ele>
        <time>2025-06-11T14:48:21Z</time>
      </trkpt>
      <trkpt lat="47.32025" lon="0.18181">
        <ele>50</ele>
        <time>2025-06-11T14:48:22Z</time>
      </trkpt>
      <trkpt lat="47.32005" lon="0.18182">
        <ele>50.4</ele>
        <time>2025-06-11T14:48:27Z</time>
      </trkpt>
      <trkpt lat="47.31981" lon="0.18211">
        <ele>52</ele>
        <time>2025-06-11T14:48:34Z</time>
      </trkpt>
      <trkpt lat="47.31946" lon="0.18269">
        <ele>51.5</ele>
        <time>2025-06-11T14:48:47Z</time>
      </trkpt>
      <trkpt lat="47.3191" lon="0.18314">
        <ele>50.6</ele>
        <time>2025-06-11T14:48:58Z</time>
      </trkpt>
      <trkpt lat="47.31903" lon="0.1833">
        <ele>50.5</ele>
        <time>2025-06-11T14:49:01Z</time>
      </trkpt>
      <trkpt lat="47.31896" lon="0.18423">
        <ele>49.3</ele>
        <time>2025-06-11T14:49:15Z</time>
      </trkpt>
      <trkpt lat="47.31863" lon="0.18648">
        <ele>46</ele>
        <time>2025-06-11T14:49:52Z</time>
      </trkpt>
      <trkpt lat="47.31842" lon="0.18731">
        <ele>46</ele>
        <time>2025-06-11T14:50:06Z</time>
      </trkpt>
      <trkpt lat="47.31799" lon="0.18845">
        <ele>47.3</ele>
        <time>2025-06-11T14:50:27Z</time>
      </trkpt>
      <trkpt lat="47.31773" lon="0.18981">
        <ele>53.9</ele>
        <time>2025-06-11T14:50:49Z</time>
      </trkpt>
      <trkpt lat="47.31773" lon="0.19073">
        <ele>51.4</ele>
        <time>2025-06-11T14:51:03Z</time>
      </trkpt>
      <trkpt lat="47.31767" lon="0.19145">
        <ele>48.8</ele>
        <time>2025-06-11T14:51:15Z</time>
      </trkpt>
      <trkpt lat="47.31765" lon="0.19243">
        <ele>44.9</ele>
        <time>2025-06-11T14:51:30Z</time>
      </trkpt>
      <trkpt lat="47.3177" lon="0.19261">
        <ele>44.4</ele>
        <time>2025-06-11T14:51:34Z</time>
      </trkpt>
      <trkpt lat="47.3177" lon="0.19345">
        <ele>42.2</ele>
        <time>2025-06-11T14:51:47Z</time>
      </trkpt>
      <trkpt lat="47.31783" lon="0.19368">
        <ele>41.8</ele>
        <time>2025-06-11T14:51:52Z</time>
      </trkpt>
      <trkpt lat="47.31814" lon="0.19383">
        <ele>42</ele>
        <time>2025-06-11T14:51:59Z</time>
      </trkpt>
      <trkpt lat="47.31883" lon="0.19404">
        <ele>42</ele>
        <time>2025-06-11T14:52:16Z</time>
      </trkpt>
      <trkpt lat="47.31937" lon="0.19426">
        <ele>41.9</ele>
        <time>2025-06-11T14:52:29Z</time>
      </trkpt>
      <trkpt lat="47.31986" lon="0.19453">
        <ele>42</ele>
        <time>2025-06-11T14:52:41Z</time>
      </trkpt>
      <trkpt lat="47.31998" lon="0.19465">
        <ele>42</ele>
        <time>2025-06-11T14:52:44Z</time>
      </trkpt>
      <trkpt lat="47.32001" lon="0.19479">
        <ele>42</ele>
        <time>2025-06-11T14:52:47Z</time>
      </trkpt>
      <trkpt lat="47.31988" lon="0.19572">
        <ele>42</ele>
        <time>2025-06-11T14:53:02Z</time>
      </trkpt>
      <trkpt lat="47.3199" lon="0.19644">
        <ele>42</ele>
        <time>2025-06-11T14:53:13Z</time>
      </trkpt>
      <trkpt lat="47.32001" lon="0.19653">
        <ele>42</ele>
        <time>2025-06-11T14:53:16Z</time>
      </trkpt>
      <trkpt lat="47.32112" lon="0.19643">
        <ele>42</ele>
        <time>2025-06-11T14:53:42Z</time>
      </trkpt>
      <trkpt lat="47.32224" lon="0.19626">
        <ele>42</ele>
        <time>2025-06-11T14:54:08Z</time>
      </trkpt>
      <trkpt lat="47.32292" lon="0.1962">
        <ele>42.7</ele>
        <time>2025-06-11T14:54:24Z</time>
      </trkpt>
      <trkpt lat="47.32404" lon="0.19604">
        <ele>42.7</ele>
        <time>2025-06-11T14:54:51Z</time>
      </trkpt>
      <trkpt lat="47.32432" lon="0.19596">
        <ele>42.5</ele>
        <time>2025-06-11T14:54:57Z</time>
      </trkpt>
      <trkpt lat="47.32515" lon="0.19593">
        <ele>43.7</ele>
        <time>2025-06-11T14:55:17Z</time>
      </trkpt>
      <trkpt lat="47.32644" lon="0.1957">
        <ele>45.1</ele>
        <time>2025-06-11T14:55:47Z</time>
      </trkpt>
      <trkpt lat="47.32767" lon="0.19562">
        <ele>47.5</ele>
        <time>2025-06-11T14:56:16Z</time>
      </trkpt>
      <trkpt lat="47.32925" lon="0.19539">
        <ele>49.8</ele>
        <time>2025-06-11T14:56:53Z</time>
      </trkpt>
      <trkpt lat="47.33054" lon="0.1953">
        <ele>49.2</ele>
        <time>2025-06-11T14:57:23Z</time>
      </trkpt>
      <trkpt lat="47.33133" lon="0.19515">
        <ele>50.4</ele>
        <time>2025-06-11T14:57:41Z</time>
      </trkpt>
      <trkpt lat="47.33181" lon="0.1951">
        <ele>49.9</ele>
        <time>2025-06-11T14:57:53Z</time>
      </trkpt>
      <trkpt lat="47.33262" lon="0.19506">
        <ele>46.9</ele>
        <time>2025-06-11T14:58:12Z</time>
      </trkpt>
      <trkpt lat="47.33483" lon="0.19479">
        <ele>45.5</ele>
        <time>2025-06-11T14:59:03Z</time>
      </trkpt>
      <trkpt lat="47.33538" lon="0.19478">
        <ele>46.2</ele>
        <time>2025-06-11T14:59:16Z</time>
      </trkpt>
      <trkpt lat="47.33541" lon="0.19489">
        <ele>46.6</ele>
        <time>2025-06-11T14:59:18Z</time>
      </trkpt>
      <trkpt lat="47.3353" lon="0.1953">
        <ele>46</ele>
        <time>2025-06-11T14:59:25Z</time>
      </trkpt>
      <trkpt lat="47.3353" lon="0.19562">
        <ele>46.3</ele>
        <time>2025-06-11T14:59:30Z</time>
      </trkpt>
      <trkpt lat="47.33546" lon="0.19635">
        <ele>47</ele>
        <time>2025-06-11T14:59:42Z</time>
      </trkpt>
      <trkpt lat="47.33557" lon="0.19644">
        <ele>47.2</ele>
        <time>2025-06-11T14:59:45Z</time>
      </trkpt>
      <trkpt lat="47.33587" lon="0.19647">
        <ele>47.4</ele>
        <time>2025-06-11T14:59:52Z</time>
      </trkpt>
      <trkpt lat="47.33599" lon="0.19659">
        <ele>48.3</ele>
        <time>2025-06-11T14:59:56Z</time>
      </trkpt>
      <trkpt lat="47.33606" lon="0.19673">
        <ele>49</ele>
        <time>2025-06-11T14:59:58Z</time>
      </trkpt>
      <trkpt lat="47.33612" lon="0.19702">
        <ele>50.1</ele>
        <time>2025-06-11T15:00:03Z</time>
      </trkpt>
      <trkpt lat="47.33639" lon="0.1976">
        <ele>53.7</ele>
        <time>2025-06-11T15:00:14Z</time>
      </trkpt>
      <trkpt lat="47.33695" lon="0.19831">
        <ele>56.2</ele>
        <time>2025-06-11T15:00:32Z</time>
      </trkpt>
      <trkpt lat="47.33777" lon="0.1995">
        <ele>57.3</ele>
        <time>2025-06-11T15:00:58Z</time>
      </trkpt>
      <trkpt lat="47.33849" lon="0.20123">
        <ele>57.9</ele>
        <time>2025-06-11T15:01:31Z</time>
      </trkpt>
      <trkpt lat="47.33883" lon="0.20219">
        <ele>57.3</ele>
        <time>2025-06-11T15:01:48Z</time>
      </trkpt>
      <trkpt lat="47.33925" lon="0.20302">
        <ele>57.2</ele>
        <time>2025-06-11T15:02:04Z</time>
      </trkpt>
      <trkpt lat="47.3394" lon="0.20341">
        <ele>56.9</ele>
        <time>2025-06-11T15:02:11Z</time>
      </trkpt>
      <trkpt lat="47.33935" lon="0.2037">
        <ele>54.7</ele>
        <time>2025-06-11T15:02:16Z</time>
      </trkpt>
      <trkpt lat="47.33824" lon="0.20628">
        <ele>56.1</ele>
        <time>2025-06-11T15:03:04Z</time>
      </trkpt>
      <trkpt lat="47.33812" lon="0.20631">
        <ele>56.7</ele>
        <time>2025-06-11T15:03:07Z</time>
      </trkpt>
      <trkpt lat="47.33795" lon="0.20618">
        <ele>58.4</ele>
        <time>2025-06-11T15:03:12Z</time>
      </trkpt>
      <trkpt lat="47.33783" lon="0.20617">
        <ele>60.1</ele>
        <time>2025-06-11T15:03:14Z</time>
      </trkpt>
      <trkpt lat="47.33731" lon="0.20647">
        <ele>65.1</ele>
        <time>2025-06-11T15:03:28Z</time>
      </trkpt>
      <trkpt lat="47.33676" lon="0.20686">
        <ele>65.6</ele>
        <time>2025-06-11T15:03:42Z</time>
      </trkpt>
      <trkpt lat="47.33641" lon="0.2072">
        <ele>65.1</ele>
        <time>2025-06-11T15:03:52Z</time>
      </trkpt>
      <trkpt lat="47.33583" lon="0.20765">
        <ele>67.5</ele>
        <time>2025-06-11T15:04:07Z</time>
      </trkpt>
      <trkpt lat="47.33552" lon="0.20801">
        <ele>69.7</ele>
        <time>2025-06-11T15:04:16Z</time>
      </trkpt>
      <trkpt lat="47.3353" lon="0.20846">
        <ele>70.6</ele>
        <time>2025-06-11T15:04:25Z</time>
      </trkpt>
      <trkpt lat="47.33508" lon="0.20858">
        <ele>71</ele>
        <time>2025-06-11T15:04:30Z</time>
      </trkpt>
      <trkpt lat="47.33474" lon="0.20867">
        <ele>73.1</ele>
        <time>2025-06-11T15:04:38Z</time>
      </trkpt>
      <trkpt lat="47.33454" lon="0.20861">
        <ele>73.7</ele>
        <time>2025-06-11T15:04:43Z</time>
      </trkpt>
      <trkpt lat="47.33416" lon="0.20829">
        <ele>75.4</ele>
        <time>2025-06-11T15:04:53Z</time>
      </trkpt>
      <trkpt lat="47.33333" lon="0.20787">
        <ele>80</ele>
        <time>2025-06-11T15:05:14Z</time>
      </trkpt>
      <trkpt lat="47.33297" lon="0.20779">
        <ele>80</ele>
        <time>2025-06-11T15:05:22Z</time>
      </trkpt>
      <trkpt lat="47.33265" lon="0.20762">
        <ele>80.8</ele>
        <time>2025-06-11T15:05:30Z</time>
      </trkpt>
      <trkpt lat="47.33246" lon="0.20758">
        <ele>81.1</ele>
        <time>2025-06-11T15:05:35Z</time>
      </trkpt>
      <trkpt lat="47.33235" lon="0.20765">
        <ele>81.5</ele>
        <time>2025-06-11T15:05:38Z</time>
      </trkpt>
      <trkpt lat="47.33222" lon="0.2079">
        <ele>82.9</ele>
        <time>2025-06-11T15:05:43Z</time>
      </trkpt>
      <trkpt lat="47.3321" lon="0.20801">
        <ele>84.1</ele>
        <time>2025-06-11T15:05:46Z</time>
      </trkpt>
      <trkpt lat="47.33193" lon="0.20804">
        <ele>84.9</ele>
        <time>2025-06-11T15:05:50Z</time>
      </trkpt>
      <trkpt lat="47.33148" lon="0.20835">
        <ele>86.7</ele>
        <time>2025-06-11T15:06:01Z</time>
      </trkpt>
      <trkpt lat="47.3309" lon="0.20864">
        <ele>89.5</ele>
        <time>2025-06-11T15:06:16Z</time>
      </trkpt>
      <trkpt lat="47.32994" lon="0.20894">
        <ele>93.4</ele>
        <time>2025-06-11T15:06:39Z</time>
      </trkpt>
      <trkpt lat="47.32974" lon="0.20907">
        <ele>94.6</ele>
        <time>2025-06-11T15:06:44Z</time>
      </trkpt>
      <trkpt lat="47.32962" lon="0.20907">
        <ele>95.1</ele>
        <time>2025-06-11T15:06:47Z</time>
      </trkpt>
      <trkpt lat="47.32882" lon="0.20891">
        <ele>98</ele>
        <time>2025-06-11T15:07:05Z</time>
      </trkpt>
      <trkpt lat="47.32852" lon="0.2088">
        <ele>98</ele>
        <time>2025-06-11T15:07:13Z</time>
      </trkpt>
      <trkpt lat="47.32788" lon="0.20839">
        <ele>96.4</ele>
        <time>2025-06-11T15:07:29Z</time>
      </trkpt>
      <trkpt lat="47.32781" lon="0.2083">
        <ele>96.1</ele>
        <time>2025-06-11T15:07:31Z</time>
      </trkpt>
      <trkpt lat="47.32757" lon="0.20772">
        <ele>95.5</ele>
        <time>2025-06-11T15:07:42Z</time>
      </trkpt>
      <trkpt lat="47.32724" lon="0.20756">
        <ele>93.1</ele>
        <time>2025-06-11T15:07:50Z</time>
      </trkpt>
      <trkpt lat="47.32702" lon="0.2076">
        <ele>90.6</ele>
        <time>2025-06-11T15:07:55Z</time>
      </trkpt>
      <trkpt lat="47.32679" lon="0.20787">
        <ele>86.9</ele>
        <time>2025-06-11T15:08:02Z</time>
      </trkpt>
      <trkpt lat="47.32663" lon="0.20821">
        <ele>84.8</ele>
        <time>2025-06-11T15:08:09Z</time>
      </trkpt>
      <trkpt lat="47.32648" lon="0.20841">
        <ele>82.2</ele>
        <time>2025-06-11T15:08:13Z</time>
      </trkpt>
      <trkpt lat="47.32615" lon="0.20856">
        <ele>77.5</ele>
        <time>2025-06-11T15:08:21Z</time>
      </trkpt>
      <trkpt lat="47.32589" lon="0.20873">
        <ele>75.3</ele>
        <time>2025-06-11T15:08:28Z</time>
      </trkpt>
      <trkpt lat="47.32506" lon="0.20976">
        <ele>63.8</ele>
        <time>2025-06-11T15:08:53Z</time>
      </trkpt>
      <trkpt lat="47.32492" lon="0.2098">
        <ele>61.3</ele>
        <time>2025-06-11T15:08:57Z</time>
      </trkpt>
      <trkpt lat="47.32476" lon="0.20977">
        <ele>58.7</ele>
        <time>2025-06-11T15:09:00Z</time>
      </trkpt>
      <trkpt lat="47.32471" lon="0.20983">
        <ele>58.3</ele>
        <time>2025-06-11T15:09:02Z</time>
      </trkpt>
      <trkpt lat="47.32457" lon="0.21022">
        <ele>58.3</ele>
        <time>2025-06-11T15:09:09Z</time>
      </trkpt>
      <trkpt lat="47.32457" lon="0.21076">
        <ele>59.9</ele>
        <time>2025-06-11T15:09:17Z</time>
      </trkpt>
      <trkpt lat="47.32481" lon="0.21313">
        <ele>62.8</ele>
        <time>2025-06-11T15:09:55Z</time>
      </trkpt>
      <trkpt lat="47.32499" lon="0.21391">
        <ele>62.8</ele>
        <time>2025-06-11T15:10:08Z</time>
      </trkpt>
      <trkpt lat="47.32534" lon="0.21489">
        <ele>62.9</ele>
        <time>2025-06-11T15:10:26Z</time>
      </trkpt>
      <trkpt lat="47.32543" lon="0.21528">
        <ele>63.1</ele>
        <time>2025-06-11T15:10:33Z</time>
      </trkpt>
      <trkpt lat="47.32552" lon="0.2153">
        <ele>63.9</ele>
        <time>2025-06-11T15:10:35Z</time>
      </trkpt>
      <trkpt lat="47.32569" lon="0.21522">
        <ele>66.2</ele>
        <time>2025-06-11T15:10:39Z</time>
      </trkpt>
      <trkpt lat="47.326" lon="0.21491">
        <ele>70.3</ele>
        <time>2025-06-11T15:10:48Z</time>
      </trkpt>
      <trkpt lat="47.32621" lon="0.21463">
        <ele>75.7</ele>
        <time>2025-06-11T15:10:54Z</time>
      </trkpt>
      <trkpt lat="47.32642" lon="0.21463">
        <ele>80.7</ele>
        <time>2025-06-11T15:10:59Z</time>
      </trkpt>
      <trkpt lat="47.32662" lon="0.21483">
        <ele>84.5</ele>
        <time>2025-06-11T15:11:05Z</time>
      </trkpt>
      <trkpt lat="47.327" lon="0.21534">
        <ele>90.5</ele>
        <time>2025-06-11T15:11:17Z</time>
      </trkpt>
      <trkpt lat="47.32743" lon="0.21641">
        <ele>95.7</ele>
        <time>2025-06-11T15:11:36Z</time>
      </trkpt>
      <trkpt lat="47.32757" lon="0.21704">
        <ele>95.3</ele>
        <time>2025-06-11T15:11:47Z</time>
      </trkpt>
      <trkpt lat="47.32754" lon="0.21737">
        <ele>95.1</ele>
        <time>2025-06-11T15:11:52Z</time>
      </trkpt>
      <trkpt lat="47.32758" lon="0.21777">
        <ele>95.6</ele>
        <time>2025-06-11T15:11:59Z</time>
      </trkpt>
      <trkpt lat="47.32752" lon="0.2179">
        <ele>95.1</ele>
        <time>2025-06-11T15:12:01Z</time>
      </trkpt>
      <trkpt lat="47.3273" lon="0.21804">
        <ele>94.2</ele>
        <time>2025-06-11T15:12:07Z</time>
      </trkpt>
      <trkpt lat="47.32699" lon="0.21815">
        <ele>90.9</ele>
        <time>2025-06-11T15:12:14Z</time>
      </trkpt>
      <trkpt lat="47.32666" lon="0.21818">
        <ele>86.3</ele>
        <time>2025-06-11T15:12:22Z</time>
      </trkpt>
      <trkpt lat="47.32624" lon="0.21829">
        <ele>78.6</ele>
        <time>2025-06-11T15:12:32Z</time>
      </trkpt>
      <trkpt lat="47.32563" lon="0.21834">
        <ele>66.1</ele>
        <time>2025-06-11T15:12:46Z</time>
      </trkpt>
      <trkpt lat="47.32497" lon="0.21855">
        <ele>65.1</ele>
        <time>2025-06-11T15:13:02Z</time>
      </trkpt>
      <trkpt lat="47.32449" lon="0.21857">
        <ele>66.8</ele>
        <time>2025-06-11T15:13:13Z</time>
      </trkpt>
      <trkpt lat="47.32426" lon="0.21862">
        <ele>68.3</ele>
        <time>2025-06-11T15:13:18Z</time>
      </trkpt>
      <trkpt lat="47.32411" lon="0.2186">
        <ele>69.4</ele>
        <time>2025-06-11T15:13:22Z</time>
      </trkpt>
      <trkpt lat="47.32392" lon="0.21852">
        <ele>70.5</ele>
        <time>2025-06-11T15:13:27Z</time>
      </trkpt>
      <trkpt lat="47.32345" lon="0.21817">
        <ele>73.4</ele>
        <time>2025-06-11T15:13:39Z</time>
      </trkpt>
      <trkpt lat="47.32331" lon="0.21803">
        <ele>74.2</ele>
        <time>2025-06-11T15:13:43Z</time>
      </trkpt>
      <trkpt lat="47.3231" lon="0.21771">
        <ele>75.4</ele>
        <time>2025-06-11T15:13:50Z</time>
      </trkpt>
      <trkpt lat="47.3229" lon="0.21758">
        <ele>77.1</ele>
        <time>2025-06-11T15:13:55Z</time>
      </trkpt>
      <trkpt lat="47.3225" lon="0.21748">
        <ele>81.9</ele>
        <time>2025-06-11T15:14:04Z</time>
      </trkpt>
      <trkpt lat="47.32161" lon="0.21712">
        <ele>88</ele>
        <time>2025-06-11T15:14:26Z</time>
      </trkpt>
      <trkpt lat="47.32124" lon="0.21706">
        <ele>90.5</ele>
        <time>2025-06-11T15:14:35Z</time>
      </trkpt>
      <trkpt lat="47.3209" lon="0.2169">
        <ele>92.4</ele>
        <time>2025-06-11T15:14:43Z</time>
      </trkpt>
      <trkpt lat="47.32021" lon="0.21672">
        <ele>95.6</ele>
        <time>2025-06-11T15:14:59Z</time>
      </trkpt>
      <trkpt lat="47.31985" lon="0.21653">
        <ele>97.3</ele>
        <time>2025-06-11T15:15:08Z</time>
      </trkpt>
      <trkpt lat="47.3187" lon="0.21614">
        <ele>101.7</ele>
        <time>2025-06-11T15:15:36Z</time>
      </trkpt>
      <trkpt lat="47.31815" lon="0.21589">
        <ele>103.7</ele>
        <time>2025-06-11T15:15:49Z</time>
      </trkpt>
      <trkpt lat="47.31789" lon="0.21565">
        <ele>104.2</ele>
        <time>2025-06-11T15:15:56Z</time>
      </trkpt>
      <trkpt lat="47.31779" lon="0.21561">
        <ele>104.2</ele>
        <time>2025-06-11T15:15:59Z</time>
      </trkpt>
      <trkpt lat="47.31769" lon="0.21603">
        <ele>105.2</ele>
        <time>2025-06-11T15:16:06Z</time>
      </trkpt>
      <trkpt lat="47.31764" lon="0.21653">
        <ele>105.5</ele>
        <time>2025-06-11T15:16:14Z</time>
      </trkpt>
      <trkpt lat="47.31778" lon="0.21788">
        <ele>105</ele>
        <time>2025-06-11T15:16:36Z</time>
      </trkpt>
      <trkpt lat="47.31773" lon="0.21874">
        <ele>105.2</ele>
        <time>2025-06-11T15:16:49Z</time>
      </trkpt>
      <trkpt lat="47.31728" lon="0.22166">
        <ele>104.8</ele>
        <time>2025-06-11T15:17:37Z</time>
      </trkpt>
      <trkpt lat="47.31721" lon="0.22183">
        <ele>105</ele>
        <time>2025-06-11T15:17:40Z</time>
      </trkpt>
      <trkpt lat="47.31677" lon="0.22229">
        <ele>106</ele>
        <time>2025-06-11T15:17:52Z</time>
      </trkpt>
      <trkpt lat="47.31656" lon="0.2226">
        <ele>106</ele>
        <time>2025-06-11T15:17:59Z</time>
      </trkpt>
      <trkpt lat="47.31654" lon="0.22258">
        <ele>106</ele>
        <time>2025-06-11T15:18:00Z</time>
      </trkpt>
      <trkpt lat="47.31663" lon="0.22242">
        <ele>106</ele>
        <time>2025-06-11T15:18:03Z</time>
      </trkpt>
      <trkpt lat="47.31653" lon="0.2223">
        <ele>106</ele>
        <time>2025-06-11T15:18:06Z</time>
      </trkpt>
      <trkpt lat="47.31592" lon="0.22236">
        <ele>107</ele>
        <time>2025-06-11T15:18:20Z</time>
      </trkpt>
      <trkpt lat="47.3158" lon="0.22214">
        <ele>106.9</ele>
        <time>2025-06-11T15:18:25Z</time>
      </trkpt>
      <trkpt lat="47.31574" lon="0.22154">
        <ele>106.7</ele>
        <time>2025-06-11T15:18:35Z</time>
      </trkpt>
      <trkpt lat="47.31556" lon="0.22091">
        <ele>106</ele>
        <time>2025-06-11T15:18:45Z</time>
      </trkpt>
      <trkpt lat="47.3155" lon="0.21986">
        <ele>106.8</ele>
        <time>2025-06-11T15:19:02Z</time>
      </trkpt>
      <trkpt lat="47.31563" lon="0.21887">
        <ele>107.3</ele>
        <time>2025-06-11T15:19:18Z</time>
      </trkpt>
      <trkpt lat="47.31564" lon="0.21843">
        <ele>108</ele>
        <time>2025-06-11T15:19:25Z</time>
      </trkpt>
      <trkpt lat="47.31551" lon="0.21811">
        <ele>107.8</ele>
        <time>2025-06-11T15:19:31Z</time>
      </trkpt>
      <trkpt lat="47.31514" lon="0.21766">
        <ele>106.5</ele>
        <time>2025-06-11T15:19:42Z</time>
      </trkpt>
      <trkpt lat="47.31504" lon="0.21747">
        <ele>106.1</ele>
        <time>2025-06-11T15:19:46Z</time>
      </trkpt>
      <trkpt lat="47.31494" lon="0.21675">
        <ele>104.8</ele>
        <time>2025-06-11T15:19:58Z</time>
      </trkpt>
      <trkpt lat="47.31471" lon="0.21589">
        <ele>102.1</ele>
        <time>2025-06-11T15:20:12Z</time>
      </trkpt>
      <trkpt lat="47.31459" lon="0.21561">
        <ele>99.4</ele>
        <time>2025-06-11T15:20:17Z</time>
      </trkpt>
      <trkpt lat="47.31456" lon="0.21504">
        <ele>95.1</ele>
        <time>2025-06-11T15:20:26Z</time>
      </trkpt>
      <trkpt lat="47.31418" lon="0.21226">
        <ele>70.1</ele>
        <time>2025-06-11T15:21:11Z</time>
      </trkpt>
      <trkpt lat="47.31423" lon="0.21205">
        <ele>70.5</ele>
        <time>2025-06-11T15:21:15Z</time>
      </trkpt>
      <trkpt lat="47.3144" lon="0.212">
        <ele>71.7</ele>
        <time>2025-06-11T15:21:19Z</time>
      </trkpt>
      <trkpt lat="47.31466" lon="0.2121">
        <ele>74.3</ele>
        <time>2025-06-11T15:21:25Z</time>
      </trkpt>
      <trkpt lat="47.31513" lon="0.21237">
        <ele>82.5</ele>
        <time>2025-06-11T15:21:37Z</time>
      </trkpt>
      <trkpt lat="47.31531" lon="0.21259">
        <ele>86.4</ele>
        <time>2025-06-11T15:21:42Z</time>
      </trkpt>
      <trkpt lat="47.31561" lon="0.21286">
        <ele>91.3</ele>
        <time>2025-06-11T15:21:51Z</time>
      </trkpt>
      <trkpt lat="47.31613" lon="0.21369">
        <ele>97.9</ele>
        <time>2025-06-11T15:22:09Z</time>
      </trkpt>
      <trkpt lat="47.31646" lon="0.21396">
        <ele>101.3</ele>
        <time>2025-06-11T15:22:17Z</time>
      </trkpt>
      <trkpt lat="47.31651" lon="0.21394">
        <ele>101.8</ele>
        <time>2025-06-11T15:22:19Z</time>
      </trkpt>
      <trkpt lat="47.31658" lon="0.21343">
        <ele>101.9</ele>
        <time>2025-06-11T15:22:27Z</time>
      </trkpt>
      <trkpt lat="47.31657" lon="0.21233">
        <ele>100.7</ele>
        <time>2025-06-11T15:22:44Z</time>
      </trkpt>
      <trkpt lat="47.31644" lon="0.21197">
        <ele>99.3</ele>
        <time>2025-06-11T15:22:51Z</time>
      </trkpt>
      <trkpt lat="47.31637" lon="0.21128">
        <ele>95.4</ele>
        <time>2025-06-11T15:23:02Z</time>
      </trkpt>
      <trkpt lat="47.31618" lon="0.21081">
        <ele>90.6</ele>
        <time>2025-06-11T15:23:10Z</time>
      </trkpt>
      <trkpt lat="47.31579" lon="0.21051">
        <ele>84.2</ele>
        <time>2025-06-11T15:23:21Z</time>
      </trkpt>
      <trkpt lat="47.31547" lon="0.21047">
        <ele>79.4</ele>
        <time>2025-06-11T15:23:28Z</time>
      </trkpt>
      <trkpt lat="47.31539" lon="0.21042">
        <ele>77.8</ele>
        <time>2025-06-11T15:23:30Z</time>
      </trkpt>
      <trkpt lat="47.31532" lon="0.21032">
        <ele>76</ele>
        <time>2025-06-11T15:23:32Z</time>
      </trkpt>
      <trkpt lat="47.31529" lon="0.21013">
        <ele>75.2</ele>
        <time>2025-06-11T15:23:36Z</time>
      </trkpt>
      <trkpt lat="47.31529" lon="0.20982">
        <ele>75.2</ele>
        <time>2025-06-11T15:23:40Z</time>
      </trkpt>
      <trkpt lat="47.31539" lon="0.2089">
        <ele>76.6</ele>
        <time>2025-06-11T15:23:55Z</time>
      </trkpt>
      <trkpt lat="47.31538" lon="0.20761">
        <ele>77.7</ele>
        <time>2025-06-11T15:24:16Z</time>
      </trkpt>
      <trkpt lat="47.31525" lon="0.20683">
        <ele>76.5</ele>
        <time>2025-06-11T15:24:28Z</time>
      </trkpt>
      <trkpt lat="47.31521" lon="0.20611">
        <ele>76.8</ele>
        <time>2025-06-11T15:24:40Z</time>
      </trkpt>
      <trkpt lat="47.31509" lon="0.20536">
        <ele>74.4</ele>
        <time>2025-06-11T15:24:52Z</time>
      </trkpt>
      <trkpt lat="47.31496" lon="0.20331">
        <ele>75.6</ele>
        <time>2025-06-11T15:25:25Z</time>
      </trkpt>
      <trkpt lat="47.31498" lon="0.20295">
        <ele>76.7</ele>
        <time>2025-06-11T15:25:30Z</time>
      </trkpt>
      <trkpt lat="47.3149" lon="0.20213">
        <ele>73.5</ele>
        <time>2025-06-11T15:25:43Z</time>
      </trkpt>
      <trkpt lat="47.31526" lon="0.20064">
        <ele>68.5</ele>
        <time>2025-06-11T15:26:08Z</time>
      </trkpt>
      <trkpt lat="47.31552" lon="0.20003">
        <ele>62.3</ele>
        <time>2025-06-11T15:26:20Z</time>
      </trkpt>
      <trkpt lat="47.31555" lon="0.19985">
        <ele>59.9</ele>
        <time>2025-06-11T15:26:23Z</time>
      </trkpt>
      <trkpt lat="47.31551" lon="0.19972">
        <ele>58.1</ele>
        <time>2025-06-11T15:26:25Z</time>
      </trkpt>
      <trkpt lat="47.31532" lon="0.19954">
        <ele>56.8</ele>
        <time>2025-06-11T15:26:30Z</time>
      </trkpt>
      <trkpt lat="47.31504" lon="0.19945">
        <ele>56</ele>
        <time>2025-06-11T15:26:37Z</time>
      </trkpt>
      <trkpt lat="47.31476" lon="0.19949">
        <ele>55.5</ele>
        <time>2025-06-11T15:26:44Z</time>
      </trkpt>
      <trkpt lat="47.31421" lon="0.19976">
        <ele>54.6</ele>
        <time>2025-06-11T15:26:57Z</time>
      </trkpt>
      <trkpt lat="47.31411" lon="0.19975">
        <ele>54.2</ele>
        <time>2025-06-11T15:26:59Z</time>
      </trkpt>
      <trkpt lat="47.31403" lon="0.19967">
        <ele>53.6</ele>
        <time>2025-06-11T15:27:02Z</time>
      </trkpt>
      <trkpt lat="47.31391" lon="0.19927">
        <ele>51.4</ele>
        <time>2025-06-11T15:27:09Z</time>
      </trkpt>
      <trkpt lat="47.31381" lon="0.19867">
        <ele>48.6</ele>
        <time>2025-06-11T15:27:18Z</time>
      </trkpt>
      <trkpt lat="47.3139" lon="0.19741">
        <ele>42</ele>
        <time>2025-06-11T15:27:39Z</time>
      </trkpt>
      <trkpt lat="47.31387" lon="0.19723">
        <ele>42</ele>
        <time>2025-06-11T15:27:41Z</time>
      </trkpt>
      <trkpt lat="47.3138" lon="0.19721">
        <ele>42</ele>
        <time>2025-06-11T15:27:43Z</time>
      </trkpt>
      <trkpt lat="47.31264" lon="0.19739">
        <ele>42.3</ele>
        <time>2025-06-11T15:28:10Z</time>
      </trkpt>
      <trkpt lat="47.31256" lon="0.19737">
        <ele>42.4</ele>
        <time>2025-06-11T15:28:12Z</time>
      </trkpt>
      <trkpt lat="47.3125" lon="0.19727">
        <ele>42.2</ele>
        <time>2025-06-11T15:28:14Z</time>
      </trkpt>
      <trkpt lat="47.31241" lon="0.19591">
        <ele>41</ele>
        <time>2025-06-11T15:28:36Z</time>
      </trkpt>
      <trkpt lat="47.3124" lon="0.19501">
        <ele>41</ele>
        <time>2025-06-11T15:28:50Z</time>
      </trkpt>
      <trkpt lat="47.31247" lon="0.19452">
        <ele>41</ele>
        <time>2025-06-11T15:28:58Z</time>
      </trkpt>
      <trkpt lat="47.31285" lon="0.19354">
        <ele>41</ele>
        <time>2025-06-11T15:29:16Z</time>
      </trkpt>
      <trkpt lat="47.31296" lon="0.19305">
        <ele>42</ele>
        <time>2025-06-11T15:29:24Z</time>
      </trkpt>
      <trkpt lat="47.31284" lon="0.19127">
        <ele>44.6</ele>
        <time>2025-06-11T15:29:53Z</time>
      </trkpt>
      <trkpt lat="47.31276" lon="0.19116">
        <ele>44.8</ele>
        <time>2025-06-11T15:29:55Z</time>
      </trkpt>
      <trkpt lat="47.31199" lon="0.19104">
        <ele>45.3</ele>
        <time>2025-06-11T15:30:13Z</time>
      </trkpt>
      <trkpt lat="47.31173" lon="0.19091">
        <ele>45.7</ele>
        <time>2025-06-11T15:30:20Z</time>
      </trkpt>
      <trkpt lat="47.31165" lon="0.19082">
        <ele>46</ele>
        <time>2025-06-11T15:30:22Z</time>
      </trkpt>
      <trkpt lat="47.31223" lon="0.18997">
        <ele>48.1</ele>
        <time>2025-06-11T15:30:41Z</time>
      </trkpt>
      <trkpt lat="47.31276" lon="0.18935">
        <ele>48.4</ele>
        <time>2025-06-11T15:30:57Z</time>
      </trkpt>
      <trkpt lat="47.31357" lon="0.18759">
        <ele>53.5</ele>
        <time>2025-06-11T15:31:31Z</time>
      </trkpt>
      <trkpt lat="47.3137" lon="0.18722">
        <ele>55</ele>
        <time>2025-06-11T15:31:37Z</time>
      </trkpt>
      <trkpt lat="47.31374" lon="0.18654">
        <ele>58.1</ele>
        <time>2025-06-11T15:31:48Z</time>
      </trkpt>
      <trkpt lat="47.31358" lon="0.185">
        <ele>61.7</ele>
        <time>2025-06-11T15:32:13Z</time>
      </trkpt>
      <trkpt lat="47.31347" lon="0.18319">
        <ele>67.3</ele>
        <time>2025-06-11T15:32:41Z</time>
      </trkpt>
      <trkpt lat="47.31348" lon="0.18285">
        <ele>69.5</ele>
        <time>2025-06-11T15:32:47Z</time>
      </trkpt>
      <trkpt lat="47.31317" lon="0.18116">
        <ele>79.6</ele>
        <time>2025-06-11T15:33:14Z</time>
      </trkpt>
      <trkpt lat="47.31313" lon="0.18038">
        <ele>84.4</ele>
        <time>2025-06-11T15:33:27Z</time>
      </trkpt>
      <trkpt lat="47.31326" lon="0.17954">
        <ele>88.2</ele>
        <time>2025-06-11T15:33:41Z</time>
      </trkpt>
      <trkpt lat="47.31345" lon="0.17906">
        <ele>88.2</ele>
        <time>2025-06-11T15:33:49Z</time>
      </trkpt>
      <trkpt lat="47.31374" lon="0.17843">
        <ele>86.1</ele>
        <time>2025-06-11T15:34:01Z</time>
      </trkpt>
      <trkpt lat="47.31419" lon="0.17782">
        <ele>77.9</ele>
        <time>2025-06-11T15:34:16Z</time>
      </trkpt>
      <trkpt lat="47.31428" lon="0.17744">
        <ele>75.4</ele>
        <time>2025-06-11T15:34:22Z</time>
      </trkpt>
      <trkpt lat="47.31426" lon="0.17709">
        <ele>75.8</ele>
        <time>2025-06-11T15:34:28Z</time>
      </trkpt>
      <trkpt lat="47.31405" lon="0.17712">
        <ele>80.6</ele>
        <time>2025-06-11T15:34:32Z</time>
      </trkpt>
      <trkpt lat="47.31397" lon="0.17724">
        <ele>83.4</ele>
        <time>2025-06-11T15:34:35Z</time>
      </trkpt>
      <trkpt lat="47.31385" lon="0.17729">
        <ele>87</ele>
        <time>2025-06-11T15:34:38Z</time>
      </trkpt>
      <trkpt lat="47.31336" lon="0.17787">
        <ele>95.3</ele>
        <time>2025-06-11T15:34:53Z</time>
      </trkpt>
      <trkpt lat="47.31319" lon="0.17827">
        <ele>95.5</ele>
        <time>2025-06-11T15:35:00Z</time>
      </trkpt>
      <trkpt lat="47.31279" lon="0.17841">
        <ele>101.2</ele>
        <time>2025-06-11T15:35:10Z</time>
      </trkpt>
      <trkpt lat="47.31255" lon="0.17825">
        <ele>104.8</ele>
        <time>2025-06-11T15:35:16Z</time>
      </trkpt>
      <trkpt lat="47.31241" lon="0.17824">
        <ele>105.9</ele>
        <time>2025-06-11T15:35:19Z</time>
      </trkpt>
      <trkpt lat="47.31236" lon="0.17805">
        <ele>106.5</ele>
        <time>2025-06-11T15:35:22Z</time>
      </trkpt>
      <trkpt lat="47.31212" lon="0.17793">
        <ele>107.4</ele>
        <time>2025-06-11T15:35:28Z</time>
      </trkpt>
      <trkpt lat="47.31217" lon="0.17762">
        <ele>107.2</ele>
        <time>2025-06-11T15:35:33Z</time>
      </trkpt>
      <trkpt lat="47.31192" lon="0.17731">
        <ele>107.3</ele>
        <time>2025-06-11T15:35:41Z</time>
      </trkpt>
      <trkpt lat="47.31189" lon="0.17719">
        <ele>106.8</ele>
        <time>2025-06-11T15:35:43Z</time>
      </trkpt>
      <trkpt lat="47.3117" lon="0.17709">
        <ele>106.5</ele>
        <time>2025-06-11T15:35:48Z</time>
      </trkpt>
      <trkpt lat="47.31169" lon="0.17701">
        <ele>106.2</ele>
        <time>2025-06-11T15:35:49Z</time>
      </trkpt>
      <trkpt lat="47.31177" lon="0.17674">
        <ele>103.9</ele>
        <time>2025-06-11T15:35:54Z</time>
      </trkpt>
      <trkpt lat="47.31176" lon="0.17659">
        <ele>102.5</ele>
        <time>2025-06-11T15:35:56Z</time>
      </trkpt>
      <trkpt lat="47.31167" lon="0.17655">
        <ele>102.7</ele>
        <time>2025-06-11T15:35:58Z</time>
      </trkpt>
      <trkpt lat="47.31154" lon="0.17655">
        <ele>103.6</ele>
        <time>2025-06-11T15:36:01Z</time>
      </trkpt>
      <trkpt lat="47.31145" lon="0.17673">
        <ele>105.1</ele>
        <time>2025-06-11T15:36:05Z</time>
      </trkpt>
      <trkpt lat="47.31131" lon="0.17686">
        <ele>106.1</ele>
        <time>2025-06-11T15:36:09Z</time>
      </trkpt>
      <trkpt lat="47.31128" lon="0.17724">
        <ele>107.4</ele>
        <time>2025-06-11T15:36:15Z</time>
      </trkpt>
      <trkpt lat="47.31113" lon="0.17748">
        <ele>108</ele>
        <time>2025-06-11T15:36:20Z</time>
      </trkpt>
      <trkpt lat="47.31096" lon="0.17754">
        <ele>107.9</ele>
        <time>2025-06-11T15:36:24Z</time>
      </trkpt>
      <trkpt lat="47.31042" lon="0.17756">
        <ele>107.7</ele>
        <time>2025-06-11T15:36:37Z</time>
      </trkpt>
      <trkpt lat="47.31027" lon="0.17741">
        <ele>108.3</ele>
        <time>2025-06-11T15:36:41Z</time>
      </trkpt>
      <trkpt lat="47.31018" lon="0.17709">
        <ele>109.2</ele>
        <time>2025-06-11T15:36:46Z</time>
      </trkpt>
      <trkpt lat="47.31018" lon="0.17686">
        <ele>109.4</ele>
        <time>2025-06-11T15:36:50Z</time>
      </trkpt>
      <trkpt lat="47.31009" lon="0.17675">
        <ele>109.7</ele>
        <time>2025-06-11T15:36:53Z</time>
      </trkpt>
      <trkpt lat="47.30996" lon="0.17684">
        <ele>110.1</ele>
        <time>2025-06-11T15:36:56Z</time>
      </trkpt>
      <trkpt lat="47.30986" lon="0.17684">
        <ele>110.5</ele>
        <time>2025-06-11T15:36:58Z</time>
      </trkpt>
      <trkpt lat="47.30956" lon="0.17647">
        <ele>111.6</ele>
        <time>2025-06-11T15:37:08Z</time>
      </trkpt>
      <trkpt lat="47.30925" lon="0.17644">
        <ele>112</ele>
        <time>2025-06-11T15:37:15Z</time>
      </trkpt>
      <trkpt lat="47.30908" lon="0.17628">
        <ele>112.1</ele>
        <time>2025-06-11T15:37:20Z</time>
      </trkpt>
      <trkpt lat="47.30882" lon="0.17618">
        <ele>112.8</ele>
        <time>2025-06-11T15:37:26Z</time>
      </trkpt>
      <trkpt lat="47.30872" lon="0.17607">
        <ele>113</ele>
        <time>2025-06-11T15:37:29Z</time>
      </trkpt>
      <trkpt lat="47.30863" lon="0.17581">
        <ele>113</ele>
        <time>2025-06-11T15:37:33Z</time>
      </trkpt>
      <trkpt lat="47.30803" lon="0.17529">
        <ele>114.1</ele>
        <time>2025-06-11T15:37:50Z</time>
      </trkpt>
      <trkpt lat="47.30769" lon="0.17484">
        <ele>115.3</ele>
        <time>2025-06-11T15:38:00Z</time>
      </trkpt>
      <trkpt lat="47.30743" lon="0.17443">
        <ele>115</ele>
        <time>2025-06-11T15:38:09Z</time>
      </trkpt>
      <trkpt lat="47.30709" lon="0.17377">
        <ele>115</ele>
        <time>2025-06-11T15:38:22Z</time>
      </trkpt>
      <trkpt lat="47.30697" lon="0.1737">
        <ele>115</ele>
        <time>2025-06-11T15:38:25Z</time>
      </trkpt>
      <trkpt lat="47.30678" lon="0.1737">
        <ele>115</ele>
        <time>2025-06-11T15:38:30Z</time>
      </trkpt>
      <trkpt lat="47.3065" lon="0.17363">
        <ele>115</ele>
        <time>2025-06-11T15:38:36Z</time>
      </trkpt>
      <trkpt lat="47.30629" lon="0.17365">
        <ele>115.4</ele>
        <time>2025-06-11T15:38:41Z</time>
      </trkpt>
      <trkpt lat="47.30602" lon="0.17377">
        <ele>116</ele>
        <time>2025-06-11T15:38:48Z</time>
      </trkpt>
      <trkpt lat="47.30565" lon="0.1738">
        <ele>116</ele>
        <time>2025-06-11T15:38:57Z</time>
      </trkpt>
      <trkpt lat="47.30551" lon="0.17386">
        <ele>116</ele>
        <time>2025-06-11T15:39:00Z</time>
      </trkpt>
      <trkpt lat="47.30532" lon="0.17428">
        <ele>115.7</ele>
        <time>2025-06-11T15:39:08Z</time>
      </trkpt>
      <trkpt lat="47.3051" lon="0.17517">
        <ele>115</ele>
        <time>2025-06-11T15:39:23Z</time>
      </trkpt>
      <trkpt lat="47.30477" lon="0.17547">
        <ele>115</ele>
        <time>2025-06-11T15:39:32Z</time>
      </trkpt>
      <trkpt lat="47.30395" lon="0.17558">
        <ele>113.2</ele>
        <time>2025-06-11T15:39:51Z</time>
      </trkpt>
      <trkpt lat="47.30337" lon="0.17555">
        <ele>113</ele>
        <time>2025-06-11T15:40:05Z</time>
      </trkpt>
      <trkpt lat="47.30328" lon="0.17565">
        <ele>112.7</ele>
        <time>2025-06-11T15:40:07Z</time>
      </trkpt>
      <trkpt lat="47.30324" lon="0.17508">
        <ele>114</ele>
        <time>2025-06-11T15:40:17Z</time>
      </trkpt>
      <trkpt lat="47.30331" lon="0.17455">
        <ele>115</ele>
        <time>2025-06-11T15:40:25Z</time>
      </trkpt>
      <trkpt lat="47.30329" lon="0.17424">
        <ele>115</ele>
        <time>2025-06-11T15:40:30Z</time>
      </trkpt>
      <trkpt lat="47.30324" lon="0.17407">
        <ele>115</ele>
        <time>2025-06-11T15:40:33Z</time>
      </trkpt>
      <trkpt lat="47.30279" lon="0.17366">
        <ele>115</ele>
        <time>2025-06-11T15:40:45Z</time>
      </trkpt>
      <trkpt lat="47.30274" lon="0.17347">
        <ele>115</ele>
        <time>2025-06-11T15:40:48Z</time>
      </trkpt>
      <trkpt lat="47.30276" lon="0.17297">
        <ele>115</ele>
        <time>2025-06-11T15:40:56Z</time>
      </trkpt>
      <trkpt lat="47.30246" lon="0.17297">
        <ele>115</ele>
        <time>2025-06-11T15:41:03Z</time>
      </trkpt>
      <trkpt lat="47.30207" lon="0.1731">
        <ele>114.5</ele>
        <time>2025-06-11T15:41:13Z</time>
      </trkpt>
      <trkpt lat="47.30152" lon="0.17319">
        <ele>111.9</ele>
        <time>2025-06-11T15:41:26Z</time>
      </trkpt>
      <trkpt lat="47.30129" lon="0.17318">
        <ele>110.5</ele>
        <time>2025-06-11T15:41:31Z</time>
      </trkpt>
      <trkpt lat="47.30124" lon="0.17312">
        <ele>110.3</ele>
        <time>2025-06-11T15:41:33Z</time>
      </trkpt>
      <trkpt lat="47.30125" lon="0.17275">
        <ele>111.1</ele>
        <time>2025-06-11T15:41:38Z</time>
      </trkpt>
      <trkpt lat="47.30138" lon="0.17191">
        <ele>112</ele>
        <time>2025-06-11T15:41:52Z</time>
      </trkpt>
      <trkpt lat="47.30126" lon="0.17131">
        <ele>109.6</ele>
        <time>2025-06-11T15:42:02Z</time>
      </trkpt>
      <trkpt lat="47.30125" lon="0.1708">
        <ele>106.8</ele>
        <time>2025-06-11T15:42:10Z</time>
      </trkpt>
      <trkpt lat="47.30115" lon="0.17074">
        <ele>105.6</ele>
        <time>2025-06-11T15:42:13Z</time>
      </trkpt>
      <trkpt lat="47.29963" lon="0.17071">
        <ele>89.6</ele>
        <time>2025-06-11T15:42:48Z</time>
      </trkpt>
      <trkpt lat="47.29956" lon="0.17073">
        <ele>88.9</ele>
        <time>2025-06-11T15:42:50Z</time>
      </trkpt>
      <trkpt lat="47.29952" lon="0.1708">
        <ele>88.7</ele>
        <time>2025-06-11T15:42:51Z</time>
      </trkpt>
      <trkpt lat="47.29944" lon="0.17128">
        <ele>86.9</ele>
        <time>2025-06-11T15:42:59Z</time>
      </trkpt>
      <trkpt lat="47.29837" lon="0.17128">
        <ele>73.4</ele>
        <time>2025-06-11T15:43:24Z</time>
      </trkpt>
      <trkpt lat="47.29822" lon="0.17122">
        <ele>71.8</ele>
        <time>2025-06-11T15:43:28Z</time>
      </trkpt>
      <trkpt lat="47.29791" lon="0.17128">
        <ele>68.4</ele>
        <time>2025-06-11T15:43:35Z</time>
      </trkpt>
      <trkpt lat="47.29768" lon="0.17127">
        <ele>65.9</ele>
        <time>2025-06-11T15:43:40Z</time>
      </trkpt>
      <trkpt lat="47.29752" lon="0.17133">
        <ele>64.2</ele>
        <time>2025-06-11T15:43:44Z</time>
      </trkpt>
      <trkpt lat="47.29713" lon="0.17122">
        <ele>60.9</ele>
        <time>2025-06-11T15:43:53Z</time>
      </trkpt>
      <trkpt lat="47.29658" lon="0.1712">
        <ele>58.7</ele>
        <time>2025-06-11T15:44:06Z</time>
      </trkpt>
      <trkpt lat="47.29592" lon="0.1711">
        <ele>57</ele>
        <time>2025-06-11T15:44:22Z</time>
      </trkpt>
      <trkpt lat="47.29518" lon="0.1709">
        <ele>55</ele>
        <time>2025-06-11T15:44:39Z</time>
      </trkpt>
      <trkpt lat="47.29417" lon="0.17088">
        <ele>53</ele>
        <time>2025-06-11T15:45:03Z</time>
      </trkpt>
      <trkpt lat="47.29383" lon="0.17091">
        <ele>52.6</ele>
        <time>2025-06-11T15:45:11Z</time>
      </trkpt>
      <trkpt lat="47.2937" lon="0.16894">
        <ele>53.3</ele>
      </trkpt>
      <trkpt lat="47.29366" lon="0.16805">
        <ele>53.2</ele>
      </trkpt>
      <trkpt lat="47.2937" lon="0.16721">
        <ele>53.3</ele>
      </trkpt>
      <trkpt lat="47.29384" lon="0.1662">
        <ele>53</ele>
      </trkpt>
      <trkpt lat="47.29387" lon="0.166">
        <ele>53</ele>
      </trkpt>
      <trkpt lat="47.29406" lon="0.16526">
        <ele>52.6</ele>
      </trkpt>
      <trkpt lat="47.29422" lon="0.16436">
        <ele>53</ele>
      </trkpt>
      <trkpt lat="47.29432" lon="0.16372">
        <ele>53.5</ele>
      </trkpt>
      <trkpt lat="47.2944" lon="0.16311">
        <ele>53.8</ele>
        <time>2025-06-11T12:53:29Z</time>
      </trkpt>
      <trkpt lat="47.2944" lon="0.16311">
        <ele>53.8</ele>
        <time>2025-06-11T12:53:29Z</time>
      </trkpt>
      <trkpt lat="47.29448" lon="0.16319">
        <ele>54.1</ele>
        <time>2025-06-11T12:53:31Z</time>
      </trkpt>
      <trkpt lat="47.2949" lon="0.16324">
        <ele>55</ele>
        <time>2025-06-11T12:53:41Z</time>
      </trkpt>
      <trkpt lat="47.29546" lon="0.16308">
        <ele>56.7</ele>
        <time>2025-06-11T12:53:54Z</time>
      </trkpt>
      <trkpt lat="47.29618" lon="0.16299">
        <ele>59.5</ele>
        <time>2025-06-11T12:54:11Z</time>
      </trkpt>
      <trkpt lat="47.29658" lon="0.16282">
        <ele>60.8</ele>
        <time>2025-06-11T12:54:21Z</time>
      </trkpt>
      <trkpt lat="47.2967" lon="0.16274">
        <ele>61.1</ele>
        <time>2025-06-11T12:54:24Z</time>
      </trkpt>
      <trkpt lat="47.29672" lon="0.16268">
        <ele>61.1</ele>
        <time>2025-06-11T12:54:25Z</time>
      </trkpt>
      <trkpt lat="47.29672" lon="0.16227">
        <ele>61.7</ele>
        <time>2025-06-11T12:54:31Z</time>
      </trkpt>
      <trkpt lat="47.29679" lon="0.16217">
        <ele>61.7</ele>
        <time>2025-06-11T12:54:34Z</time>
      </trkpt>
      <trkpt lat="47.29681" lon="0.16185">
        <ele>62.8</ele>
        <time>2025-06-11T12:54:39Z</time>
      </trkpt>
      <trkpt lat="47.29686" lon="0.16175">
        <ele>63.3</ele>
        <time>2025-06-11T12:54:41Z</time>
      </trkpt>
      <trkpt lat="47.29699" lon="0.16165">
        <ele>64.3</ele>
        <time>2025-06-11T12:54:44Z</time>
      </trkpt>
      <trkpt lat="47.29701" lon="0.16153">
        <ele>64.5</ele>
        <time>2025-06-11T12:54:46Z</time>
      </trkpt>
      <trkpt lat="47.29716" lon="0.16013">
        <ele>68</ele>
        <time>2025-06-11T12:55:08Z</time>
      </trkpt>
      <trkpt lat="47.2973" lon="0.15964">
        <ele>69.1</ele>
        <time>2025-06-11T12:55:17Z</time>
      </trkpt>
      <trkpt lat="47.29732" lon="0.1593">
        <ele>69.7</ele>
        <time>2025-06-11T12:55:22Z</time>
      </trkpt>
      <trkpt lat="47.29729" lon="0.1592">
        <ele>69.5</ele>
        <time>2025-06-11T12:55:24Z</time>
      </trkpt>
      <trkpt lat="47.29735" lon="0.15915">
        <ele>69.9</ele>
        <time>2025-06-11T12:55:26Z</time>
      </trkpt>
      <trkpt lat="47.2983" lon="0.15929">
        <ele>76.8</ele>
        <time>2025-06-11T12:55:48Z</time>
      </trkpt>
      <trkpt lat="47.29843" lon="0.15927">
        <ele>77.6</ele>
        <time>2025-06-11T12:55:51Z</time>
      </trkpt>
      <trkpt lat="47.29856" lon="0.15909">
        <ele>78.7</ele>
        <time>2025-06-11T12:55:55Z</time>
      </trkpt>
      <trkpt lat="47.2993" lon="0.1574">
        <ele>87.6</ele>
        <time>2025-06-11T12:56:27Z</time>
      </trkpt>
      <trkpt lat="47.29941" lon="0.1573">
        <ele>88.2</ele>
        <time>2025-06-11T12:56:30Z</time>
      </trkpt>
      <trkpt lat="47.2995" lon="0.15735">
        <ele>89.5</ele>
        <time>2025-06-11T12:56:32Z</time>
      </trkpt>
      <trkpt lat="47.29953" lon="0.15743">
        <ele>90.4</ele>
        <time>2025-06-11T12:56:34Z</time>
      </trkpt>
      <trkpt lat="47.29954" lon="0.15867">
        <ele>94.6</ele>
        <time>2025-06-11T12:56:53Z</time>
      </trkpt>
      <trkpt lat="47.29969" lon="0.1592">
        <ele>99.2</ele>
        <time>2025-06-11T12:57:02Z</time>
      </trkpt>
      <trkpt lat="47.29961" lon="0.15955">
        <ele>97.7</ele>
        <time>2025-06-11T12:57:08Z</time>
      </trkpt>
      <trkpt lat="47.29953" lon="0.15964">
        <ele>95.7</ele>
        <time>2025-06-11T12:57:11Z</time>
      </trkpt>
      <trkpt lat="47.29904" lon="0.15985">
        <ele>84.1</ele>
        <time>2025-06-11T12:57:23Z</time>
      </trkpt>
      <trkpt lat="47.29875" lon="0.16042">
        <ele>83</ele>
        <time>2025-06-11T12:57:34Z</time>
      </trkpt>
      <trkpt lat="47.29833" lon="0.16045">
        <ele>76</ele>
        <time>2025-06-11T12:57:44Z</time>
      </trkpt>
      <trkpt lat="47.29828" lon="0.16057">
        <ele>75.4</ele>
        <time>2025-06-11T12:57:46Z</time>
      </trkpt>
      <trkpt lat="47.29826" lon="0.16151">
        <ele>73.9</ele>
        <time>2025-06-11T12:58:01Z</time>
      </trkpt>
      <trkpt lat="47.29829" lon="0.16164">
        <ele>74.4</ele>
        <time>2025-06-11T12:58:03Z</time>
      </trkpt>
      <trkpt lat="47.29839" lon="0.1617">
        <ele>76.2</ele>
        <time>2025-06-11T12:58:05Z</time>
      </trkpt>
      <trkpt lat="47.29844" lon="0.16182">
        <ele>77.1</ele>
        <time>2025-06-11T12:58:08Z</time>
      </trkpt>
      <trkpt lat="47.29854" lon="0.16278">
        <ele>80.2</ele>
        <time>2025-06-11T12:58:23Z</time>
      </trkpt>
      <trkpt lat="47.29887" lon="0.16311">
        <ele>86</ele>
        <time>2025-06-11T12:58:32Z</time>
      </trkpt>
      <trkpt lat="47.29959" lon="0.16407">
        <ele>99.4</ele>
        <time>2025-06-11T12:58:55Z</time>
      </trkpt>
      <trkpt lat="47.29963" lon="0.16426">
        <ele>99.7</ele>
        <time>2025-06-11T12:58:58Z</time>
      </trkpt>
      <trkpt lat="47.29966" lon="0.16503">
        <ele>97.4</ele>
        <time>2025-06-11T12:59:10Z</time>
      </trkpt>
      <trkpt lat="47.29971" lon="0.16518">
        <ele>96.6</ele>
        <time>2025-06-11T12:59:13Z</time>
      </trkpt>
      <trkpt lat="47.29978" lon="0.16521">
        <ele>96.9</ele>
        <time>2025-06-11T12:59:15Z</time>
      </trkpt>
      <trkpt lat="47.30026" lon="0.1652">
        <ele>101.1</ele>
        <time>2025-06-11T12:59:26Z</time>
      </trkpt>
      <trkpt lat="47.30043" lon="0.16512">
        <ele>102.7</ele>
        <time>2025-06-11T12:59:30Z</time>
      </trkpt>
      <trkpt lat="47.3008" lon="0.16528">
        <ele>103.9</ele>
        <time>2025-06-11T12:59:39Z</time>
      </trkpt>
      <trkpt lat="47.30098" lon="0.16497">
        <ele>106.2</ele>
        <time>2025-06-11T12:59:46Z</time>
      </trkpt>
      <trkpt lat="47.30123" lon="0.16478">
        <ele>108.6</ele>
        <time>2025-06-11T12:59:52Z</time>
      </trkpt>
      <trkpt lat="47.30132" lon="0.16458">
        <ele>109.6</ele>
        <time>2025-06-11T12:59:56Z</time>
      </trkpt>
      <trkpt lat="47.30132" lon="0.16449">
        <ele>109.7</ele>
        <time>2025-06-11T12:59:57Z</time>
      </trkpt>
      <trkpt lat="47.30119" lon="0.1642">
        <ele>110.2</ele>
        <time>2025-06-11T13:00:03Z</time>
      </trkpt>
      <trkpt lat="47.3012" lon="0.16381">
        <ele>111.3</ele>
        <time>2025-06-11T13:00:09Z</time>
      </trkpt>
      <trkpt lat="47.30109" lon="0.1636">
        <ele>111</ele>
        <time>2025-06-11T13:00:13Z</time>
      </trkpt>
      <trkpt lat="47.30088" lon="0.16346">
        <ele>110.3</ele>
        <time>2025-06-11T13:00:19Z</time>
      </trkpt>
      <trkpt lat="47.30086" lon="0.16324">
        <ele>110.2</ele>
        <time>2025-06-11T13:00:22Z</time>
      </trkpt>
      <trkpt lat="47.3009" lon="0.16311">
        <ele>110.5</ele>
        <time>2025-06-11T13:00:24Z</time>
      </trkpt>
      <trkpt lat="47.3016" lon="0.16154">
        <ele>111.8</ele>
        <time>2025-06-11T13:00:54Z</time>
      </trkpt>
      <trkpt lat="47.30177" lon="0.1609">
        <ele>112.4</ele>
        <time>2025-06-11T13:01:05Z</time>
      </trkpt>
      <trkpt lat="47.30204" lon="0.16019">
        <ele>113.2</ele>
        <time>2025-06-11T13:01:18Z</time>
      </trkpt>
      <trkpt lat="47.30229" lon="0.15999">
        <ele>113</ele>
        <time>2025-06-11T13:01:25Z</time>
      </trkpt>
      <trkpt lat="47.30271" lon="0.15998">
        <ele>113.7</ele>
        <time>2025-06-11T13:01:34Z</time>
      </trkpt>
      <trkpt lat="47.30283" lon="0.15992">
        <ele>113.7</ele>
        <time>2025-06-11T13:01:37Z</time>
      </trkpt>
      <trkpt lat="47.30306" lon="0.15942">
        <ele>112.9</ele>
        <time>2025-06-11T13:01:47Z</time>
      </trkpt>
      <trkpt lat="47.30321" lon="0.15921">
        <ele>112.6</ele>
        <time>2025-06-11T13:01:52Z</time>
      </trkpt>
      <trkpt lat="47.3036" lon="0.1578">
        <ele>111.1</ele>
        <time>2025-06-11T13:02:16Z</time>
      </trkpt>
      <trkpt lat="47.30381" lon="0.15734">
        <ele>111.1</ele>
        <time>2025-06-11T13:02:25Z</time>
      </trkpt>
      <trkpt lat="47.30383" lon="0.15718">
        <ele>110.8</ele>
        <time>2025-06-11T13:02:27Z</time>
      </trkpt>
      <trkpt lat="47.30345" lon="0.15667">
        <ele>107.9</ele>
        <time>2025-06-11T13:02:39Z</time>
      </trkpt>
      <trkpt lat="47.30328" lon="0.15658">
        <ele>106.1</ele>
        <time>2025-06-11T13:02:43Z</time>
      </trkpt>
      <trkpt lat="47.30292" lon="0.15626">
        <ele>100.6</ele>
        <time>2025-06-11T13:02:53Z</time>
      </trkpt>
      <trkpt lat="47.3028" lon="0.15605">
        <ele>98.1</ele>
        <time>2025-06-11T13:02:58Z</time>
      </trkpt>
      <trkpt lat="47.3025" lon="0.15574">
        <ele>93</ele>
        <time>2025-06-11T13:03:06Z</time>
      </trkpt>
      <trkpt lat="47.30241" lon="0.1555">
        <ele>92.2</ele>
        <time>2025-06-11T13:03:11Z</time>
      </trkpt>
      <trkpt lat="47.30211" lon="0.15522">
        <ele>88.9</ele>
        <time>2025-06-11T13:03:19Z</time>
      </trkpt>
      <trkpt lat="47.30196" lon="0.15518">
        <ele>87.2</ele>
        <time>2025-06-11T13:03:22Z</time>
      </trkpt>
      <trkpt lat="47.30197" lon="0.15508">
        <ele>87.3</ele>
        <time>2025-06-11T13:03:24Z</time>
      </trkpt>
      <trkpt lat="47.30206" lon="0.15494">
        <ele>88.9</ele>
        <time>2025-06-11T13:03:27Z</time>
      </trkpt>
      <trkpt lat="47.30219" lon="0.15493">
        <ele>90.8</ele>
        <time>2025-06-11T13:03:30Z</time>
      </trkpt>
      <trkpt lat="47.30223" lon="0.15489">
        <ele>91.5</ele>
        <time>2025-06-11T13:03:31Z</time>
      </trkpt>
      <trkpt lat="47.30223" lon="0.15475">
        <ele>92</ele>
        <time>2025-06-11T13:03:33Z</time>
      </trkpt>
      <trkpt lat="47.30228" lon="0.15469">
        <ele>92.9</ele>
        <time>2025-06-11T13:03:35Z</time>
      </trkpt>
      <trkpt lat="47.30247" lon="0.15478">
        <ele>95.4</ele>
        <time>2025-06-11T13:03:40Z</time>
      </trkpt>
      <trkpt lat="47.30274" lon="0.1546">
        <ele>99.4</ele>
        <time>2025-06-11T13:03:47Z</time>
      </trkpt>
      <trkpt lat="47.30294" lon="0.1546">
        <ele>101.7</ele>
        <time>2025-06-11T13:03:51Z</time>
      </trkpt>
      <trkpt lat="47.30308" lon="0.1544">
        <ele>103.4</ele>
        <time>2025-06-11T13:03:56Z</time>
      </trkpt>
      <trkpt lat="47.30296" lon="0.15356">
        <ele>104.3</ele>
        <time>2025-06-11T13:04:09Z</time>
      </trkpt>
      <trkpt lat="47.30298" lon="0.15312">
        <ele>104.5</ele>
        <time>2025-06-11T13:04:16Z</time>
      </trkpt>
      <trkpt lat="47.30306" lon="0.1526">
        <ele>105</ele>
        <time>2025-06-11T13:04:25Z</time>
      </trkpt>
      <trkpt lat="47.30292" lon="0.15214">
        <ele>104</ele>
        <time>2025-06-11T13:04:33Z</time>
      </trkpt>
      <trkpt lat="47.30254" lon="0.15168">
        <ele>101.3</ele>
        <time>2025-06-11T13:04:44Z</time>
      </trkpt>
      <trkpt lat="47.30243" lon="0.15144">
        <ele>99.6</ele>
        <time>2025-06-11T13:04:49Z</time>
      </trkpt>
      <trkpt lat="47.30246" lon="0.15131">
        <ele>99.7</ele>
        <time>2025-06-11T13:04:51Z</time>
      </trkpt>
      <trkpt lat="47.30264" lon="0.15097">
        <ele>102</ele>
        <time>2025-06-11T13:04:58Z</time>
      </trkpt>
      <trkpt lat="47.30297" lon="0.1493">
        <ele>110.1</ele>
        <time>2025-06-11T13:05:25Z</time>
      </trkpt>
      <trkpt lat="47.30309" lon="0.149">
        <ele>111.1</ele>
        <time>2025-06-11T13:05:31Z</time>
      </trkpt>
      <trkpt lat="47.30318" lon="0.14844">
        <ele>111.4</ele>
        <time>2025-06-11T13:05:40Z</time>
      </trkpt>
      <trkpt lat="47.30313" lon="0.14799">
        <ele>111.3</ele>
        <time>2025-06-11T13:05:47Z</time>
      </trkpt>
      <trkpt lat="47.30287" lon="0.14781">
        <ele>109.7</ele>
        <time>2025-06-11T13:05:54Z</time>
      </trkpt>
      <trkpt lat="47.30277" lon="0.1479">
        <ele>109.4</ele>
        <time>2025-06-11T13:05:57Z</time>
      </trkpt>
      <trkpt lat="47.30265" lon="0.14783">
        <ele>108.2</ele>
        <time>2025-06-11T13:06:00Z</time>
      </trkpt>
      <trkpt lat="47.30239" lon="0.14762">
        <ele>105.2</ele>
        <time>2025-06-11T13:06:07Z</time>
      </trkpt>
      <trkpt lat="47.30232" lon="0.1474">
        <ele>104.4</ele>
        <time>2025-06-11T13:06:10Z</time>
      </trkpt>
      <trkpt lat="47.30207" lon="0.14744">
        <ele>101.5</ele>
        <time>2025-06-11T13:06:16Z</time>
      </trkpt>
      <trkpt lat="47.30195" lon="0.14735">
        <ele>100.1</ele>
        <time>2025-06-11T13:06:19Z</time>
      </trkpt>
      <trkpt lat="47.30163" lon="0.14735">
        <ele>95.6</ele>
        <time>2025-06-11T13:06:27Z</time>
      </trkpt>
      <trkpt lat="47.30172" lon="0.14717">
        <ele>97.1</ele>
        <time>2025-06-11T13:06:30Z</time>
      </trkpt>
      <trkpt lat="47.30165" lon="0.1469">
        <ele>98.4</ele>
        <time>2025-06-11T13:06:35Z</time>
      </trkpt>
      <trkpt lat="47.30152" lon="0.14681">
        <ele>98.4</ele>
        <time>2025-06-11T13:06:38Z</time>
      </trkpt>
      <trkpt lat="47.30128" lon="0.14678">
        <ele>96.4</ele>
        <time>2025-06-11T13:06:44Z</time>
      </trkpt>
      <trkpt lat="47.30099" lon="0.14664">
        <ele>92.9</ele>
        <time>2025-06-11T13:06:51Z</time>
      </trkpt>
      <trkpt lat="47.30091" lon="0.14654">
        <ele>91.8</ele>
        <time>2025-06-11T13:06:54Z</time>
      </trkpt>
      <trkpt lat="47.30083" lon="0.14631">
        <ele>90.4</ele>
        <time>2025-06-11T13:06:58Z</time>
      </trkpt>
      <trkpt lat="47.30072" lon="0.1462">
        <ele>87.5</ele>
        <time>2025-06-11T13:07:01Z</time>
      </trkpt>
      <trkpt lat="47.30016" lon="0.14599">
        <ele>80.7</ele>
        <time>2025-06-11T13:07:14Z</time>
      </trkpt>
      <trkpt lat="47.30003" lon="0.14589">
        <ele>79.4</ele>
        <time>2025-06-11T13:07:18Z</time>
      </trkpt>
      <trkpt lat="47.30002" lon="0.14584">
        <ele>79.2</ele>
        <time>2025-06-11T13:07:19Z</time>
      </trkpt>
      <trkpt lat="47.30019" lon="0.14545">
        <ele>79.3</ele>
        <time>2025-06-11T13:07:26Z</time>
      </trkpt>
      <trkpt lat="47.30023" lon="0.14554">
        <ele>79.8</ele>
        <time>2025-06-11T13:07:28Z</time>
      </trkpt>
      <trkpt lat="47.30034" lon="0.1456">
        <ele>80.6</ele>
        <time>2025-06-11T13:07:30Z</time>
      </trkpt>
      <trkpt lat="47.3009" lon="0.14573">
        <ele>87.4</ele>
        <time>2025-06-11T13:07:44Z</time>
      </trkpt>
      <trkpt lat="47.30121" lon="0.14556">
        <ele>90.5</ele>
        <time>2025-06-11T13:07:51Z</time>
      </trkpt>
      <trkpt lat="47.30147" lon="0.14555">
        <ele>94.1</ele>
        <time>2025-06-11T13:07:57Z</time>
      </trkpt>
      <trkpt lat="47.30164" lon="0.14537">
        <ele>95.8</ele>
        <time>2025-06-11T13:08:02Z</time>
      </trkpt>
      <trkpt lat="47.30168" lon="0.14516">
        <ele>96.2</ele>
        <time>2025-06-11T13:08:06Z</time>
      </trkpt>
      <trkpt lat="47.30163" lon="0.14484">
        <ele>96.3</ele>
        <time>2025-06-11T13:08:11Z</time>
      </trkpt>
      <trkpt lat="47.30162" lon="0.14423">
        <ele>99.7</ele>
        <time>2025-06-11T13:08:21Z</time>
      </trkpt>
      <trkpt lat="47.30169" lon="0.14406">
        <ele>101.3</ele>
        <time>2025-06-11T13:08:24Z</time>
      </trkpt>
      <trkpt lat="47.30185" lon="0.144">
        <ele>103</ele>
        <time>2025-06-11T13:08:28Z</time>
      </trkpt>
      <trkpt lat="47.30188" lon="0.14392">
        <ele>103.3</ele>
        <time>2025-06-11T13:08:29Z</time>
      </trkpt>
      <trkpt lat="47.30186" lon="0.14378">
        <ele>103.5</ele>
        <time>2025-06-11T13:08:31Z</time>
      </trkpt>
      <trkpt lat="47.30175" lon="0.14363">
        <ele>102.8</ele>
        <time>2025-06-11T13:08:35Z</time>
      </trkpt>
      <trkpt lat="47.30155" lon="0.14355">
        <ele>100.5</ele>
        <time>2025-06-11T13:08:40Z</time>
      </trkpt>
      <trkpt lat="47.30122" lon="0.14376">
        <ele>93.3</ele>
        <time>2025-06-11T13:08:48Z</time>
      </trkpt>
      <trkpt lat="47.30104" lon="0.14376">
        <ele>89.8</ele>
        <time>2025-06-11T13:08:52Z</time>
      </trkpt>
      <trkpt lat="47.30098" lon="0.14372">
        <ele>89</ele>
        <time>2025-06-11T13:08:54Z</time>
      </trkpt>
      <trkpt lat="47.30086" lon="0.14379">
        <ele>86.8</ele>
        <time>2025-06-11T13:08:57Z</time>
      </trkpt>
      <trkpt lat="47.30071" lon="0.14379">
        <ele>84.7</ele>
        <time>2025-06-11T13:09:00Z</time>
      </trkpt>
      <trkpt lat="47.30069" lon="0.14372">
        <ele>84.9</ele>
        <time>2025-06-11T13:09:02Z</time>
      </trkpt>
      <trkpt lat="47.30084" lon="0.14332">
        <ele>88.2</ele>
        <time>2025-06-11T13:09:09Z</time>
      </trkpt>
      <trkpt lat="47.30091" lon="0.14298">
        <ele>90.7</ele>
        <time>2025-06-11T13:09:14Z</time>
      </trkpt>
      <trkpt lat="47.30101" lon="0.14286">
        <ele>92.9</ele>
        <time>2025-06-11T13:09:17Z</time>
      </trkpt>
      <trkpt lat="47.30108" lon="0.14259">
        <ele>95.1</ele>
        <time>2025-06-11T13:09:22Z</time>
      </trkpt>
      <trkpt lat="47.30117" lon="0.14245">
        <ele>96.8</ele>
        <time>2025-06-11T13:09:25Z</time>
      </trkpt>
      <trkpt lat="47.30167" lon="0.14231">
        <ele>103</ele>
        <time>2025-06-11T13:09:37Z</time>
      </trkpt>
      <trkpt lat="47.30182" lon="0.14221">
        <ele>104.7</ele>
        <time>2025-06-11T13:09:41Z</time>
      </trkpt>
      <trkpt lat="47.302" lon="0.1419">
        <ele>106.4</ele>
        <time>2025-06-11T13:09:47Z</time>
      </trkpt>
      <trkpt lat="47.30262" lon="0.14155">
        <ele>110</ele>
        <time>2025-06-11T13:10:03Z</time>
      </trkpt>
      <trkpt lat="47.30285" lon="0.14148">
        <ele>110.6</ele>
        <time>2025-06-11T13:10:08Z</time>
      </trkpt>
      <trkpt lat="47.3031" lon="0.14059">
        <ele>110</ele>
        <time>2025-06-11T13:10:23Z</time>
      </trkpt>
      <trkpt lat="47.30317" lon="0.13975">
        <ele>107.9</ele>
        <time>2025-06-11T13:10:37Z</time>
      </trkpt>
      <trkpt lat="47.30336" lon="0.13917">
        <ele>106.1</ele>
        <time>2025-06-11T13:10:47Z</time>
      </trkpt>
      <trkpt lat="47.30345" lon="0.13904">
        <ele>105.8</ele>
        <time>2025-06-11T13:10:50Z</time>
      </trkpt>
      <trkpt lat="47.30358" lon="0.13895">
        <ele>105.4</ele>
        <time>2025-06-11T13:10:53Z</time>
      </trkpt>
      <trkpt lat="47.30378" lon="0.139">
        <ele>106</ele>
        <time>2025-06-11T13:10:58Z</time>
      </trkpt>
      <trkpt lat="47.30397" lon="0.13898">
        <ele>106.2</ele>
        <time>2025-06-11T13:11:03Z</time>
      </trkpt>
      <trkpt lat="47.30445" lon="0.13869">
        <ele>107.6</ele>
        <time>2025-06-11T13:11:15Z</time>
      </trkpt>
      <trkpt lat="47.30468" lon="0.13818">
        <ele>106.1</ele>
        <time>2025-06-11T13:11:24Z</time>
      </trkpt>
      <trkpt lat="47.30465" lon="0.13755">
        <ele>106.6</ele>
        <time>2025-06-11T13:11:34Z</time>
      </trkpt>
      <trkpt lat="47.30446" lon="0.13713">
        <ele>107.4</ele>
        <time>2025-06-11T13:11:42Z</time>
      </trkpt>
      <trkpt lat="47.30442" lon="0.13694">
        <ele>107.9</ele>
        <time>2025-06-11T13:11:45Z</time>
      </trkpt>
      <trkpt lat="47.30442" lon="0.13669">
        <ele>108.8</ele>
        <time>2025-06-11T13:11:49Z</time>
      </trkpt>
      <trkpt lat="47.30456" lon="0.13612">
        <ele>111</ele>
        <time>2025-06-11T13:11:59Z</time>
      </trkpt>
      <trkpt lat="47.30462" lon="0.13558">
        <ele>111.6</ele>
        <time>2025-06-11T13:12:08Z</time>
      </trkpt>
      <trkpt lat="47.30402" lon="0.1342">
        <ele>105</ele>
        <time>2025-06-11T13:12:34Z</time>
      </trkpt>
      <trkpt lat="47.30394" lon="0.13381">
        <ele>103.1</ele>
        <time>2025-06-11T13:12:40Z</time>
      </trkpt>
      <trkpt lat="47.30395" lon="0.13349">
        <ele>102</ele>
        <time>2025-06-11T13:12:45Z</time>
      </trkpt>
      <trkpt lat="47.30403" lon="0.13321">
        <ele>101.6</ele>
        <time>2025-06-11T13:12:50Z</time>
      </trkpt>
      <trkpt lat="47.3043" lon="0.13262">
        <ele>100.8</ele>
        <time>2025-06-11T13:13:01Z</time>
      </trkpt>
      <trkpt lat="47.30462" lon="0.13175">
        <ele>99.6</ele>
        <time>2025-06-11T13:13:17Z</time>
      </trkpt>
      <trkpt lat="47.30465" lon="0.13131">
        <ele>97.6</ele>
        <time>2025-06-11T13:13:24Z</time>
      </trkpt>
      <trkpt lat="47.30447" lon="0.13065">
        <ele>92.3</ele>
        <time>2025-06-11T13:13:35Z</time>
      </trkpt>
      <trkpt lat="47.304" lon="0.12947">
        <ele>82.8</ele>
        <time>2025-06-11T13:13:57Z</time>
      </trkpt>
      <trkpt lat="47.30402" lon="0.12939">
        <ele>82.5</ele>
        <time>2025-06-11T13:13:58Z</time>
      </trkpt>
      <trkpt lat="47.3041" lon="0.12935">
        <ele>83.2</ele>
        <time>2025-06-11T13:14:00Z</time>
      </trkpt>
      <trkpt lat="47.30427" lon="0.1294">
        <ele>84.9</ele>
        <time>2025-06-11T13:14:04Z</time>
      </trkpt>
      <trkpt lat="47.30462" lon="0.12969">
        <ele>88.3</ele>
        <time>2025-06-11T13:14:14Z</time>
      </trkpt>
      <trkpt lat="47.30509" lon="0.13077">
        <ele>97.5</ele>
        <time>2025-06-11T13:14:34Z</time>
      </trkpt>
      <trkpt lat="47.30529" lon="0.13102">
        <ele>100.1</ele>
        <time>2025-06-11T13:14:40Z</time>
      </trkpt>
      <trkpt lat="47.30553" lon="0.13117">
        <ele>102.3</ele>
        <time>2025-06-11T13:14:46Z</time>
      </trkpt>
      <trkpt lat="47.30575" lon="0.13113">
        <ele>103.6</ele>
        <time>2025-06-11T13:14:51Z</time>
      </trkpt>
      <trkpt lat="47.30598" lon="0.13094">
        <ele>104.7</ele>
        <time>2025-06-11T13:14:58Z</time>
      </trkpt>
      <trkpt lat="47.30632" lon="0.13077">
        <ele>107.2</ele>
        <time>2025-06-11T13:15:06Z</time>
      </trkpt>
      <trkpt lat="47.30647" lon="0.13075">
        <ele>108.1</ele>
        <time>2025-06-11T13:15:09Z</time>
      </trkpt>
      <trkpt lat="47.30659" lon="0.13081">
        <ele>108.7</ele>
        <time>2025-06-11T13:15:12Z</time>
      </trkpt>
      <trkpt lat="47.30714" lon="0.13133">
        <ele>111.6</ele>
        <time>2025-06-11T13:15:28Z</time>
      </trkpt>
      <trkpt lat="47.3073" lon="0.13107">
        <ele>111</ele>
        <time>2025-06-11T13:15:33Z</time>
      </trkpt>
      <trkpt lat="47.3076" lon="0.13077">
        <ele>111</ele>
        <time>2025-06-11T13:15:42Z</time>
      </trkpt>
      <trkpt lat="47.30792" lon="0.13063">
        <ele>111</ele>
        <time>2025-06-11T13:15:49Z</time>
      </trkpt>
      <trkpt lat="47.30818" lon="0.13039">
        <ele>111</ele>
        <time>2025-06-11T13:15:57Z</time>
      </trkpt>
      <trkpt lat="47.30827" lon="0.13023">
        <ele>110.8</ele>
        <time>2025-06-11T13:16:00Z</time>
      </trkpt>
      <trkpt lat="47.30843" lon="0.12971">
        <ele>110</ele>
        <time>2025-06-11T13:16:09Z</time>
      </trkpt>
      <trkpt lat="47.30874" lon="0.12893">
        <ele>109</ele>
        <time>2025-06-11T13:16:23Z</time>
      </trkpt>
      <trkpt lat="47.30892" lon="0.1281">
        <ele>109</ele>
        <time>2025-06-11T13:16:37Z</time>
      </trkpt>
      <trkpt lat="47.30888" lon="0.12778">
        <ele>109</ele>
        <time>2025-06-11T13:16:42Z</time>
      </trkpt>
      <trkpt lat="47.30867" lon="0.12745">
        <ele>109</ele>
        <time>2025-06-11T13:16:49Z</time>
      </trkpt>
      <trkpt lat="47.30856" lon="0.1271">
        <ele>109.5</ele>
        <time>2025-06-11T13:16:55Z</time>
      </trkpt>
      <trkpt lat="47.30853" lon="0.12672">
        <ele>110</ele>
        <time>2025-06-11T13:17:02Z</time>
      </trkpt>
      <trkpt lat="47.30866" lon="0.12618">
        <ele>110</ele>
        <time>2025-06-11T13:17:11Z</time>
      </trkpt>
      <trkpt lat="47.30893" lon="0.12583">
        <ele>110</ele>
        <time>2025-06-11T13:17:19Z</time>
      </trkpt>
      <trkpt lat="47.30896" lon="0.12564">
        <ele>110.5</ele>
        <time>2025-06-11T13:17:22Z</time>
      </trkpt>
      <trkpt lat="47.30885" lon="0.12535">
        <ele>111</ele>
        <time>2025-06-11T13:17:27Z</time>
      </trkpt>
      <trkpt lat="47.30834" lon="0.12475">
        <ele>111</ele>
        <time>2025-06-11T13:17:43Z</time>
      </trkpt>
      <trkpt lat="47.30778" lon="0.12395">
        <ele>111</ele>
        <time>2025-06-11T13:18:01Z</time>
      </trkpt>
      <trkpt lat="47.30706" lon="0.12315">
        <ele>111</ele>
        <time>2025-06-11T13:18:22Z</time>
      </trkpt>
      <trkpt lat="47.30702" lon="0.12302">
        <ele>111</ele>
        <time>2025-06-11T13:18:24Z</time>
      </trkpt>
      <trkpt lat="47.30714" lon="0.12284">
        <ele>111</ele>
        <time>2025-06-11T13:18:28Z</time>
      </trkpt>
      <trkpt lat="47.3079" lon="0.12223">
        <ele>112</ele>
        <time>2025-06-11T13:18:48Z</time>
      </trkpt>
      <trkpt lat="47.30811" lon="0.12192">
        <ele>112.3</ele>
        <time>2025-06-11T13:18:55Z</time>
      </trkpt>
      <trkpt lat="47.30865" lon="0.12164">
        <ele>113</ele>
        <time>2025-06-11T13:19:09Z</time>
      </trkpt>
      <trkpt lat="47.30928" lon="0.1212">
        <ele>112.6</ele>
        <time>2025-06-11T13:19:25Z</time>
      </trkpt>
      <trkpt lat="47.30984" lon="0.12011">
        <ele>111</ele>
        <time>2025-06-11T13:19:47Z</time>
      </trkpt>
      <trkpt lat="47.30999" lon="0.11993">
        <ele>111</ele>
        <time>2025-06-11T13:19:51Z</time>
      </trkpt>
      <trkpt lat="47.31031" lon="0.11981">
        <ele>109.9</ele>
        <time>2025-06-11T13:19:59Z</time>
      </trkpt>
      <trkpt lat="47.31051" lon="0.11979">
        <ele>109.4</ele>
        <time>2025-06-11T13:20:03Z</time>
      </trkpt>
      <trkpt lat="47.31107" lon="0.12023">
        <ele>109.8</ele>
        <time>2025-06-11T13:20:18Z</time>
      </trkpt>
      <trkpt lat="47.31153" lon="0.12066">
        <ele>110.4</ele>
        <time>2025-06-11T13:20:31Z</time>
      </trkpt>
      <trkpt lat="47.3121" lon="0.12105">
        <ele>110.3</ele>
        <time>2025-06-11T13:20:46Z</time>
      </trkpt>
      <trkpt lat="47.31264" lon="0.12165">
        <ele>110</ele>
        <time>2025-06-11T13:21:01Z</time>
      </trkpt>
      <trkpt lat="47.31346" lon="0.12216">
        <ele>109</ele>
        <time>2025-06-11T13:21:22Z</time>
      </trkpt>
      <trkpt lat="47.31388" lon="0.12236">
        <ele>109</ele>
        <time>2025-06-11T13:21:33Z</time>
      </trkpt>
      <trkpt lat="47.31397" lon="0.12222">
        <ele>109</ele>
        <time>2025-06-11T13:21:36Z</time>
      </trkpt>
      <trkpt lat="47.31402" lon="0.12203">
        <ele>109</ele>
        <time>2025-06-11T13:21:39Z</time>
      </trkpt>
      <trkpt lat="47.314" lon="0.12169">
        <ele>109</ele>
        <time>2025-06-11T13:21:44Z</time>
      </trkpt>
      <trkpt lat="47.31389" lon="0.12146">
        <ele>109</ele>
        <time>2025-06-11T13:21:49Z</time>
      </trkpt>
      <trkpt lat="47.31349" lon="0.12092">
        <ele>109.9</ele>
        <time>2025-06-11T13:22:01Z</time>
      </trkpt>
      <trkpt lat="47.31347" lon="0.12075">
        <ele>110</ele>
        <time>2025-06-11T13:22:04Z</time>
      </trkpt>
      <trkpt lat="47.31355" lon="0.12042">
        <ele>110</ele>
        <time>2025-06-11T13:22:10Z</time>
      </trkpt>
      <trkpt lat="47.31378" lon="0.11987">
        <ele>109.8</ele>
        <time>2025-06-11T13:22:20Z</time>
      </trkpt>
      <trkpt lat="47.3144" lon="0.11886">
        <ele>107.5</ele>
        <time>2025-06-11T13:22:41Z</time>
      </trkpt>
      <trkpt lat="47.31454" lon="0.11847">
        <ele>104</ele>
        <time>2025-06-11T13:22:48Z</time>
      </trkpt>
      <trkpt lat="47.31463" lon="0.118">
        <ele>100.4</ele>
        <time>2025-06-11T13:22:56Z</time>
      </trkpt>
      <trkpt lat="47.31449" lon="0.11745">
        <ele>93.1</ele>
        <time>2025-06-11T13:23:05Z</time>
      </trkpt>
      <trkpt lat="47.31455" lon="0.11725">
        <ele>89.5</ele>
        <time>2025-06-11T13:23:09Z</time>
      </trkpt>
      <trkpt lat="47.31462" lon="0.1172">
        <ele>88.8</ele>
        <time>2025-06-11T13:23:11Z</time>
      </trkpt>
      <trkpt lat="47.3148" lon="0.11723">
        <ele>89.7</ele>
        <time>2025-06-11T13:23:15Z</time>
      </trkpt>
      <trkpt lat="47.31495" lon="0.1171">
        <ele>89</ele>
        <time>2025-06-11T13:23:19Z</time>
      </trkpt>
      <trkpt lat="47.31506" lon="0.11693">
        <ele>87.3</ele>
        <time>2025-06-11T13:23:23Z</time>
      </trkpt>
      <trkpt lat="47.31519" lon="0.11687">
        <ele>87.2</ele>
        <time>2025-06-11T13:23:26Z</time>
      </trkpt>
      <trkpt lat="47.31559" lon="0.11706">
        <ele>92.7</ele>
        <time>2025-06-11T13:23:36Z</time>
      </trkpt>
      <trkpt lat="47.31541" lon="0.11726">
        <ele>94.3</ele>
        <time>2025-06-11T13:23:41Z</time>
      </trkpt>
      <trkpt lat="47.31537" lon="0.1175">
        <ele>96.3</ele>
        <time>2025-06-11T13:23:45Z</time>
      </trkpt>
      <trkpt lat="47.3154" lon="0.1177">
        <ele>98.3</ele>
        <time>2025-06-11T13:23:48Z</time>
      </trkpt>
      <trkpt lat="47.31558" lon="0.11802">
        <ele>99.8</ele>
        <time>2025-06-11T13:23:55Z</time>
      </trkpt>
      <trkpt lat="47.31563" lon="0.11804">
        <ele>99.7</ele>
        <time>2025-06-11T13:23:56Z</time>
      </trkpt>
      <trkpt lat="47.31559" lon="0.11803">
        <ele>99.8</ele>
        <time>2025-06-11T13:23:57Z</time>
      </trkpt>
      <trkpt lat="47.31565" lon="0.118">
        <ele>99.5</ele>
        <time>2025-06-11T13:23:58Z</time>
      </trkpt>
      <trkpt lat="47.31565" lon="0.11803">
        <ele>99.6</ele>
        <time>2025-06-11T13:23:59Z</time>
      </trkpt>
      <trkpt lat="47.31564" lon="0.11795">
        <ele>99.4</ele>
        <time>2025-06-11T13:24:00Z</time>
      </trkpt>
      <trkpt lat="47.31565" lon="0.11801">
        <ele>99.6</ele>
        <time>2025-06-11T13:24:01Z</time>
      </trkpt>
      <trkpt lat="47.31561" lon="0.11804">
        <ele>99.8</ele>
        <time>2025-06-11T13:24:02Z</time>
      </trkpt>
      <trkpt lat="47.31577" lon="0.11781">
        <ele>99</ele>
        <time>2025-06-11T13:24:07Z</time>
      </trkpt>
      <trkpt lat="47.31594" lon="0.1177">
        <ele>97.8</ele>
        <time>2025-06-11T13:24:12Z</time>
      </trkpt>
      <trkpt lat="47.31607" lon="0.11777">
        <ele>97.3</ele>
        <time>2025-06-11T13:24:15Z</time>
      </trkpt>
      <trkpt lat="47.31611" lon="0.1179">
        <ele>97.4</ele>
        <time>2025-06-11T13:24:17Z</time>
      </trkpt>
      <trkpt lat="47.31625" lon="0.11798">
        <ele>96.7</ele>
        <time>2025-06-11T13:24:21Z</time>
      </trkpt>
      <trkpt lat="47.31633" lon="0.11809">
        <ele>96.4</ele>
        <time>2025-06-11T13:24:23Z</time>
      </trkpt>
      <trkpt lat="47.31655" lon="0.11874">
        <ele>93.1</ele>
        <time>2025-06-11T13:24:35Z</time>
      </trkpt>
      <trkpt lat="47.31766" lon="0.12012">
        <ele>99.8</ele>
        <time>2025-06-11T13:25:09Z</time>
      </trkpt>
      <trkpt lat="47.31779" lon="0.12008">
        <ele>100.3</ele>
        <time>2025-06-11T13:25:12Z</time>
      </trkpt>
      <trkpt lat="47.31811" lon="0.11963">
        <ele>99.4</ele>
        <time>2025-06-11T13:25:22Z</time>
      </trkpt>
      <trkpt lat="47.31839" lon="0.11919">
        <ele>96.4</ele>
        <time>2025-06-11T13:25:32Z</time>
      </trkpt>
      <trkpt lat="47.31862" lon="0.11873">
        <ele>94.9</ele>
        <time>2025-06-11T13:25:41Z</time>
      </trkpt>
      <trkpt lat="47.3188" lon="0.11872">
        <ele>95.2</ele>
        <time>2025-06-11T13:25:45Z</time>
      </trkpt>
      <trkpt lat="47.3191" lon="0.11882">
        <ele>95.8</ele>
        <time>2025-06-11T13:25:52Z</time>
      </trkpt>
      <trkpt lat="47.31914" lon="0.11879">
        <ele>95.6</ele>
        <time>2025-06-11T13:25:53Z</time>
      </trkpt>
      <trkpt lat="47.3191" lon="0.11815">
        <ele>92.6</ele>
        <time>2025-06-11T13:26:03Z</time>
      </trkpt>
      <trkpt lat="47.31915" lon="0.11741">
        <ele>90.7</ele>
        <time>2025-06-11T13:26:15Z</time>
      </trkpt>
      <trkpt lat="47.31905" lon="0.11677">
        <ele>88.4</ele>
        <time>2025-06-11T13:26:26Z</time>
      </trkpt>
      <trkpt lat="47.31915" lon="0.11633">
        <ele>85.7</ele>
        <time>2025-06-11T13:26:33Z</time>
      </trkpt>
      <trkpt lat="47.3197" lon="0.11526">
        <ele>74</ele>
        <time>2025-06-11T13:26:54Z</time>
      </trkpt>
      <trkpt lat="47.31972" lon="0.11505">
        <ele>72.4</ele>
        <time>2025-06-11T13:26:57Z</time>
      </trkpt>
      <trkpt lat="47.31961" lon="0.11471">
        <ele>69.7</ele>
        <time>2025-06-11T13:27:03Z</time>
      </trkpt>
      <trkpt lat="47.31924" lon="0.11428">
        <ele>66.1</ele>
        <time>2025-06-11T13:27:14Z</time>
      </trkpt>
      <trkpt lat="47.31892" lon="0.11412">
        <ele>64.7</ele>
        <time>2025-06-11T13:27:22Z</time>
      </trkpt>
      <trkpt lat="47.31863" lon="0.11405">
        <ele>64.2</ele>
        <time>2025-06-11T13:27:29Z</time>
      </trkpt>
      <trkpt lat="47.31832" lon="0.11374">
        <ele>62.5</ele>
        <time>2025-06-11T13:27:38Z</time>
      </trkpt>
      <trkpt lat="47.31812" lon="0.11346">
        <ele>62.8</ele>
        <time>2025-06-11T13:27:44Z</time>
      </trkpt>
      <trkpt lat="47.31798" lon="0.11313">
        <ele>63.3</ele>
        <time>2025-06-11T13:27:51Z</time>
      </trkpt>
      <trkpt lat="47.3178" lon="0.11253">
        <ele>63.9</ele>
        <time>2025-06-11T13:28:01Z</time>
      </trkpt>
      <trkpt lat="47.31765" lon="0.11152">
        <ele>64.7</ele>
        <time>2025-06-11T13:28:17Z</time>
      </trkpt>
      <trkpt lat="47.31739" lon="0.11047">
        <ele>64.5</ele>
        <time>2025-06-11T13:28:35Z</time>
      </trkpt>
      <trkpt lat="47.31689" lon="0.10937">
        <ele>61.4</ele>
        <time>2025-06-11T13:28:56Z</time>
      </trkpt>
      <trkpt lat="47.31601" lon="0.10769">
        <ele>54</ele>
        <time>2025-06-11T13:29:30Z</time>
      </trkpt>
      <trkpt lat="47.31573" lon="0.10704">
        <ele>53.6</ele>
        <time>2025-06-11T13:29:42Z</time>
      </trkpt>
      <trkpt lat="47.31556" lon="0.10674">
        <ele>53.3</ele>
        <time>2025-06-11T13:29:48Z</time>
      </trkpt>
      <trkpt lat="47.31505" lon="0.10597">
        <ele>52.4</ele>
        <time>2025-06-11T13:30:05Z</time>
      </trkpt>
      <trkpt lat="47.31411" lon="0.1047">
        <ele>52.1</ele>
        <time>2025-06-11T13:30:35Z</time>
      </trkpt>
      <trkpt lat="47.31231" lon="0.1026">
        <ele>51.5</ele>
        <time>2025-06-11T13:31:28Z</time>
      </trkpt>
      <trkpt lat="47.31197" lon="0.10202">
        <ele>51.3</ele>
        <time>2025-06-11T13:31:41Z</time>
      </trkpt>
      <trkpt lat="47.31166" lon="0.10159">
        <ele>51.5</ele>
        <time>2025-06-11T13:31:50Z</time>
      </trkpt>
      <trkpt lat="47.31168" lon="0.10147">
        <ele>50.5</ele>
        <time>2025-06-11T13:31:52Z</time>
      </trkpt>
      <trkpt lat="47.31244" lon="0.10057">
        <ele>51.5</ele>
        <time>2025-06-11T13:32:15Z</time>
      </trkpt>
      <trkpt lat="47.31262" lon="0.10025">
        <ele>53</ele>
        <time>2025-06-11T13:32:22Z</time>
      </trkpt>
      <trkpt lat="47.31269" lon="0.09968">
        <ele>55.5</ele>
        <time>2025-06-11T13:32:31Z</time>
      </trkpt>
      <trkpt lat="47.31269" lon="0.09901">
        <ele>56.7</ele>
        <time>2025-06-11T13:32:42Z</time>
      </trkpt>
      <trkpt lat="47.31273" lon="0.09893">
        <ele>56.8</ele>
        <time>2025-06-11T13:32:43Z</time>
      </trkpt>
      <trkpt lat="47.31281" lon="0.09894">
        <ele>57.3</ele>
        <time>2025-06-11T13:32:45Z</time>
      </trkpt>
      <trkpt lat="47.31349" lon="0.09937">
        <ele>60.8</ele>
        <time>2025-06-11T13:33:02Z</time>
      </trkpt>
      <trkpt lat="47.31377" lon="0.09947">
        <ele>60.9</ele>
        <time>2025-06-11T13:33:09Z</time>
      </trkpt>
      <trkpt lat="47.31423" lon="0.09976">
        <ele>61.2</ele>
        <time>2025-06-11T13:33:21Z</time>
      </trkpt>
      <trkpt lat="47.3146" lon="0.10021">
        <ele>63.1</ele>
        <time>2025-06-11T13:33:32Z</time>
      </trkpt>
      <trkpt lat="47.31482" lon="0.1004">
        <ele>64.1</ele>
        <time>2025-06-11T13:33:38Z</time>
      </trkpt>
      <trkpt lat="47.31522" lon="0.10104">
        <ele>65.8</ele>
        <time>2025-06-11T13:33:52Z</time>
      </trkpt>
      <trkpt lat="47.31537" lon="0.10115">
        <ele>66.6</ele>
        <time>2025-06-11T13:33:56Z</time>
      </trkpt>
      <trkpt lat="47.31556" lon="0.10101">
        <ele>68</ele>
        <time>2025-06-11T13:34:00Z</time>
      </trkpt>
      <trkpt lat="47.31566" lon="0.10088">
        <ele>68.8</ele>
        <time>2025-06-11T13:34:04Z</time>
      </trkpt>
      <trkpt lat="47.31584" lon="0.10044">
        <ele>71.5</ele>
        <time>2025-06-11T13:34:12Z</time>
      </trkpt>
      <trkpt lat="47.31597" lon="0.10031">
        <ele>73.3</ele>
        <time>2025-06-11T13:34:15Z</time>
      </trkpt>
      <trkpt lat="47.31606" lon="0.10034">
        <ele>74</ele>
        <time>2025-06-11T13:34:18Z</time>
      </trkpt>
      <trkpt lat="47.31632" lon="0.1006">
        <ele>75.8</ele>
        <time>2025-06-11T13:34:25Z</time>
      </trkpt>
      <trkpt lat="47.31642" lon="0.10064">
        <ele>76.7</ele>
        <time>2025-06-11T13:34:27Z</time>
      </trkpt>
      <trkpt lat="47.31661" lon="0.10064">
        <ele>78.8</ele>
        <time>2025-06-11T13:34:32Z</time>
      </trkpt>
      <trkpt lat="47.31686" lon="0.10057">
        <ele>82.7</ele>
        <time>2025-06-11T13:34:38Z</time>
      </trkpt>
      <trkpt lat="47.31694" lon="0.10051">
        <ele>84.3</ele>
        <time>2025-06-11T13:34:40Z</time>
      </trkpt>
      <trkpt lat="47.31709" lon="0.10028">
        <ele>88.6</ele>
        <time>2025-06-11T13:34:45Z</time>
      </trkpt>
      <trkpt lat="47.31725" lon="0.10019">
        <ele>92</ele>
        <time>2025-06-11T13:34:49Z</time>
      </trkpt>
      <trkpt lat="47.3173" lon="0.09993">
        <ele>94.6</ele>
        <time>2025-06-11T13:34:53Z</time>
      </trkpt>
      <trkpt lat="47.31745" lon="0.0996">
        <ele>97.9</ele>
        <time>2025-06-11T13:34:59Z</time>
      </trkpt>
      <trkpt lat="47.31756" lon="0.09919">
        <ele>100.4</ele>
        <time>2025-06-11T13:35:06Z</time>
      </trkpt>
      <trkpt lat="47.31779" lon="0.09861">
        <ele>102</ele>
        <time>2025-06-11T13:35:17Z</time>
      </trkpt>
      <trkpt lat="47.31807" lon="0.09808">
        <ele>101.3</ele>
        <time>2025-06-11T13:35:28Z</time>
      </trkpt>
      <trkpt lat="47.31834" lon="0.09734">
        <ele>102.1</ele>
        <time>2025-06-11T13:35:41Z</time>
      </trkpt>
      <trkpt lat="47.31903" lon="0.09626">
        <ele>108</ele>
        <time>2025-06-11T13:36:04Z</time>
      </trkpt>
      <trkpt lat="47.31916" lon="0.09614">
        <ele>108</ele>
        <time>2025-06-11T13:36:08Z</time>
      </trkpt>
      <trkpt lat="47.31931" lon="0.09613">
        <ele>108.5</ele>
        <time>2025-06-11T13:36:12Z</time>
      </trkpt>
      <trkpt lat="47.31965" lon="0.09628">
        <ele>109</ele>
        <time>2025-06-11T13:36:20Z</time>
      </trkpt>
      <trkpt lat="47.32008" lon="0.09654">
        <ele>107.7</ele>
        <time>2025-06-11T13:36:31Z</time>
      </trkpt>
      <trkpt lat="47.32058" lon="0.09712">
        <ele>106.6</ele>
        <time>2025-06-11T13:38:01Z</time>
      </trkpt>
      <trkpt lat="47.32044" lon="0.0973">
        <ele>107.6</ele>
        <time>2025-06-11T13:38:06Z</time>
      </trkpt>
      <trkpt lat="47.32011" lon="0.0979">
        <ele>109</ele>
        <time>2025-06-11T13:38:18Z</time>
      </trkpt>
      <trkpt lat="47.31988" lon="0.09866">
        <ele>109.9</ele>
        <time>2025-06-11T13:38:31Z</time>
      </trkpt>
      <trkpt lat="47.31973" lon="0.09898">
        <ele>109.7</ele>
        <time>2025-06-11T13:38:37Z</time>
      </trkpt>
      <trkpt lat="47.31926" lon="0.09975">
        <ele>108</ele>
        <time>2025-06-11T13:38:54Z</time>
      </trkpt>
      <trkpt lat="47.31905" lon="0.10033">
        <ele>106.9</ele>
        <time>2025-06-11T13:39:04Z</time>
      </trkpt>
      <trkpt lat="47.31827" lon="0.10136">
        <ele>98.5</ele>
        <time>2025-06-11T13:39:29Z</time>
      </trkpt>
      <trkpt lat="47.31781" lon="0.10183">
        <ele>88.8</ele>
        <time>2025-06-11T13:39:42Z</time>
      </trkpt>
      <trkpt lat="47.31758" lon="0.10198">
        <ele>84.6</ele>
        <time>2025-06-11T13:39:47Z</time>
      </trkpt>
      <trkpt lat="47.31713" lon="0.10206">
        <ele>78.2</ele>
        <time>2025-06-11T13:39:58Z</time>
      </trkpt>
      <trkpt lat="47.31696" lon="0.10216">
        <ele>75.6</ele>
        <time>2025-06-11T13:40:02Z</time>
      </trkpt>
      <trkpt lat="47.3165" lon="0.10283">
        <ele>68.6</ele>
        <time>2025-06-11T13:40:17Z</time>
      </trkpt>
      <trkpt lat="47.31648" lon="0.10291">
        <ele>68.2</ele>
        <time>2025-06-11T13:40:19Z</time>
      </trkpt>
      <trkpt lat="47.3166" lon="0.10296">
        <ele>68.9</ele>
        <time>2025-06-11T13:40:22Z</time>
      </trkpt>
      <trkpt lat="47.31722" lon="0.10342">
        <ele>71.4</ele>
        <time>2025-06-11T13:40:38Z</time>
      </trkpt>
      <trkpt lat="47.31732" lon="0.10343">
        <ele>72.5</ele>
        <time>2025-06-11T13:40:40Z</time>
      </trkpt>
      <trkpt lat="47.31779" lon="0.10373">
        <ele>76.3</ele>
        <time>2025-06-11T13:40:52Z</time>
      </trkpt>
      <trkpt lat="47.31849" lon="0.10405">
        <ele>82.5</ele>
        <time>2025-06-11T13:41:09Z</time>
      </trkpt>
      <trkpt lat="47.32047" lon="0.10524">
        <ele>74.7</ele>
        <time>2025-06-11T13:41:59Z</time>
      </trkpt>
      <trkpt lat="47.3209" lon="0.10542">
        <ele>76.7</ele>
        <time>2025-06-11T13:42:10Z</time>
      </trkpt>
      <trkpt lat="47.32117" lon="0.10561">
        <ele>76.4</ele>
        <time>2025-06-11T13:42:17Z</time>
      </trkpt>
      <trkpt lat="47.32172" lon="0.10589">
        <ele>71.8</ele>
        <time>2025-06-11T13:42:30Z</time>
      </trkpt>
      <trkpt lat="47.32226" lon="0.1061">
        <ele>73.7</ele>
        <time>2025-06-11T13:42:43Z</time>
      </trkpt>
      <trkpt lat="47.32263" lon="0.10618">
        <ele>80.8</ele>
        <time>2025-06-11T13:42:52Z</time>
      </trkpt>
      <trkpt lat="47.323" lon="0.10637">
        <ele>88.1</ele>
        <time>2025-06-11T13:43:01Z</time>
      </trkpt>
      <trkpt lat="47.32333" lon="0.10642">
        <ele>93.7</ele>
        <time>2025-06-11T13:43:09Z</time>
      </trkpt>
      <trkpt lat="47.3236" lon="0.1066">
        <ele>96.1</ele>
        <time>2025-06-11T13:43:16Z</time>
      </trkpt>
      <trkpt lat="47.32397" lon="0.1067">
        <ele>99.5</ele>
        <time>2025-06-11T13:43:25Z</time>
      </trkpt>
      <trkpt lat="47.3242" lon="0.1069">
        <ele>100.4</ele>
        <time>2025-06-11T13:43:31Z</time>
      </trkpt>
      <trkpt lat="47.32443" lon="0.10719">
        <ele>101</ele>
        <time>2025-06-11T13:43:38Z</time>
      </trkpt>
      <trkpt lat="47.32481" lon="0.10748">
        <ele>101.7</ele>
        <time>2025-06-11T13:43:48Z</time>
      </trkpt>
      <trkpt lat="47.32499" lon="0.10758">
        <ele>102.4</ele>
        <time>2025-06-11T13:43:52Z</time>
      </trkpt>
      <trkpt lat="47.32521" lon="0.10766">
        <ele>103</ele>
        <time>2025-06-11T13:43:58Z</time>
      </trkpt>
      <trkpt lat="47.32536" lon="0.10766">
        <ele>103.9</ele>
        <time>2025-06-11T13:44:01Z</time>
      </trkpt>
      <trkpt lat="47.32547" lon="0.10773">
        <ele>104.4</ele>
        <time>2025-06-11T13:44:04Z</time>
      </trkpt>
      <trkpt lat="47.3257" lon="0.10808">
        <ele>104.5</ele>
        <time>2025-06-11T13:44:12Z</time>
      </trkpt>
      <trkpt lat="47.32557" lon="0.10849">
        <ele>103.5</ele>
        <time>2025-06-11T13:44:19Z</time>
      </trkpt>
      <trkpt lat="47.32594" lon="0.10993">
        <ele>97.2</ele>
        <time>2025-06-11T13:44:43Z</time>
      </trkpt>
      <trkpt lat="47.32596" lon="0.11059">
        <ele>91.3</ele>
        <time>2025-06-11T13:44:54Z</time>
      </trkpt>
      <trkpt lat="47.32626" lon="0.11098">
        <ele>85.7</ele>
        <time>2025-06-11T13:45:03Z</time>
      </trkpt>
      <trkpt lat="47.32699" lon="0.11379">
        <ele>73.6</ele>
        <time>2025-06-11T13:45:51Z</time>
      </trkpt>
      <trkpt lat="47.32725" lon="0.11455">
        <ele>70.4</ele>
        <time>2025-06-11T13:46:04Z</time>
      </trkpt>
      <trkpt lat="47.32783" lon="0.1149">
        <ele>71.9</ele>
        <time>2025-06-11T13:46:19Z</time>
      </trkpt>
      <trkpt lat="47.32818" lon="0.11521">
        <ele>70.9</ele>
        <time>2025-06-11T13:46:28Z</time>
      </trkpt>
      <trkpt lat="47.32913" lon="0.11565">
        <ele>71.8</ele>
        <time>2025-06-11T13:46:52Z</time>
      </trkpt>
      <trkpt lat="47.32969" lon="0.11581">
        <ele>71.3</ele>
        <time>2025-06-11T13:47:05Z</time>
      </trkpt>
      <trkpt lat="47.33024" lon="0.1158">
        <ele>70.5</ele>
        <time>2025-06-11T13:47:18Z</time>
      </trkpt>
      <trkpt lat="47.3305" lon="0.11574">
        <ele>70.5</ele>
        <time>2025-06-11T13:47:24Z</time>
      </trkpt>
      <trkpt lat="47.33067" lon="0.11568">
        <ele>70.4</ele>
        <time>2025-06-11T13:47:28Z</time>
      </trkpt>
      <trkpt lat="47.33096" lon="0.1155">
        <ele>70.7</ele>
        <time>2025-06-11T13:47:35Z</time>
      </trkpt>
      <trkpt lat="47.33131" lon="0.11516">
        <ele>71.8</ele>
        <time>2025-06-11T13:47:45Z</time>
      </trkpt>
      <trkpt lat="47.33173" lon="0.11487">
        <ele>71.7</ele>
        <time>2025-06-11T13:47:56Z</time>
      </trkpt>
      <trkpt lat="47.332" lon="0.11463">
        <ele>72.1</ele>
        <time>2025-06-11T13:48:03Z</time>
      </trkpt>
      <trkpt lat="47.33224" lon="0.11462">
        <ele>71.3</ele>
        <time>2025-06-11T13:48:09Z</time>
      </trkpt>
      <trkpt lat="47.33266" lon="0.11484">
        <ele>69.6</ele>
        <time>2025-06-11T13:48:19Z</time>
      </trkpt>
      <trkpt lat="47.33295" lon="0.11487">
        <ele>69.5</ele>
        <time>2025-06-11T13:48:26Z</time>
      </trkpt>
      <trkpt lat="47.33365" lon="0.1147">
        <ele>70.1</ele>
        <time>2025-06-11T13:48:43Z</time>
      </trkpt>
      <trkpt lat="47.3341" lon="0.11464">
        <ele>70.1</ele>
        <time>2025-06-11T13:48:53Z</time>
      </trkpt>
      <trkpt lat="47.3342" lon="0.11453">
        <ele>70</ele>
        <time>2025-06-11T13:48:56Z</time>
      </trkpt>
    </trkseg>
  </trk>
</gpx>